<?xml version="1.0" encoding="utf-8"?>
<gpx xmlns:xsi="http://www.w3.org/2001/XMLSchema-instance" xmlns:xsd="http://www.w3.org/2001/XMLSchema" version="1.1" creator="Shapelink.com" xmlns="http://www.topografix.com/GPX/1/1" xmlns:gpxtpx="http://www.garmin.com/xmlschemas/TrackPointExtension/v1">
  <metadata>
    <name>Kører 20.10 km, 2020-02-23</name>
    <desc></desc>
    <author><name>Per Rooth</name></author> 
    <time>2020-02-23T07:12:52Z</time>
  </metadata>
  <trk>
    <name>Kører 20.10 km, 2020-02-23</name>
    <trkseg>
      <trkpt lat="56.873207011674" lon="14.79280627328">
        <ele>177.2</ele>
        <time>2020-02-23T07:12:52Z</time>
      </trkpt>
      <trkpt lat="56.873186643657" lon="14.792794873896">
        <ele>178.4</ele>
        <time>2020-02-23T07:12:53Z</time>
      </trkpt>
      <trkpt lat="56.873164934536" lon="14.792780876123">
        <ele>177.4</ele>
        <time>2020-02-23T07:12:54Z</time>
      </trkpt>
      <trkpt lat="56.873143728329" lon="14.79277023111">
        <ele>176.8</ele>
        <time>2020-02-23T07:12:55Z</time>
      </trkpt>
      <trkpt lat="56.872971480284" lon="14.792668474844">
        <ele>178</ele>
        <time>2020-02-23T07:13:03Z</time>
      </trkpt>
      <trkpt lat="56.872826305776" lon="14.792494382781">
        <ele>176.8</ele>
        <time>2020-02-23T07:13:10Z</time>
      </trkpt>
      <trkpt lat="56.872660344156" lon="14.792275531372">
        <ele>177.6</ele>
        <time>2020-02-23T07:13:18Z</time>
      </trkpt>
      <trkpt lat="56.872487257921" lon="14.792110910856">
        <ele>176</ele>
        <time>2020-02-23T07:13:26Z</time>
      </trkpt>
      <trkpt lat="56.872465381162" lon="14.79209045902">
        <ele>175.8</ele>
        <time>2020-02-23T07:13:27Z</time>
      </trkpt>
      <trkpt lat="56.872333366237" lon="14.791978728293">
        <ele>174.8</ele>
        <time>2020-02-23T07:13:33Z</time>
      </trkpt>
      <trkpt lat="56.8721554185" lon="14.791794410312">
        <ele>174</ele>
        <time>2020-02-23T07:13:41Z</time>
      </trkpt>
      <trkpt lat="56.872090207318" lon="14.791721739239">
        <ele>174</ele>
        <time>2020-02-23T07:13:44Z</time>
      </trkpt>
      <trkpt lat="56.871930448304" lon="14.791514957766">
        <ele>174.4</ele>
        <time>2020-02-23T07:13:52Z</time>
      </trkpt>
      <trkpt lat="56.871791392583" lon="14.791279342557">
        <ele>175</ele>
        <time>2020-02-23T07:14:00Z</time>
      </trkpt>
      <trkpt lat="56.871727522505" lon="14.791166270726">
        <ele>175.8</ele>
        <time>2020-02-23T07:14:04Z</time>
      </trkpt>
      <trkpt lat="56.871597686874" lon="14.790932415716">
        <ele>176</ele>
        <time>2020-02-23T07:14:11Z</time>
      </trkpt>
      <trkpt lat="56.871448572873" lon="14.790685401123">
        <ele>176.4</ele>
        <time>2020-02-23T07:14:19Z</time>
      </trkpt>
      <trkpt lat="56.871291579886" lon="14.790462358764">
        <ele>175.8</ele>
        <time>2020-02-23T07:14:27Z</time>
      </trkpt>
      <trkpt lat="56.871113632149" lon="14.790290781271">
        <ele>175.6</ele>
        <time>2020-02-23T07:14:35Z</time>
      </trkpt>
      <trkpt lat="56.870949011633" lon="14.79013999089">
        <ele>174.8</ele>
        <time>2020-02-23T07:14:42Z</time>
      </trkpt>
      <trkpt lat="56.870928643616" lon="14.79011652157">
        <ele>174.8</ele>
        <time>2020-02-23T07:14:43Z</time>
      </trkpt>
      <trkpt lat="56.870773494647" lon="14.78988015199">
        <ele>174</ele>
        <time>2020-02-23T07:14:51Z</time>
      </trkpt>
      <trkpt lat="56.870641814998" lon="14.789716537302">
        <ele>173.6</ele>
        <time>2020-02-23T07:14:57Z</time>
      </trkpt>
      <trkpt lat="56.870546261338" lon="14.789614948674">
        <ele>172.2</ele>
        <time>2020-02-23T07:15:01Z</time>
      </trkpt>
      <trkpt lat="56.870377366053" lon="14.789428619037">
        <ele>171.4</ele>
        <time>2020-02-23T07:15:09Z</time>
      </trkpt>
      <trkpt lat="56.870354232009" lon="14.789412022875">
        <ele>171.4</ele>
        <time>2020-02-23T07:15:10Z</time>
      </trkpt>
      <trkpt lat="56.870291619216" lon="14.789343123657">
        <ele>171.2</ele>
        <time>2020-02-23T07:15:13Z</time>
      </trkpt>
      <trkpt lat="56.870248452431" lon="14.789297358483">
        <ele>170</ele>
        <time>2020-02-23T07:15:15Z</time>
      </trkpt>
      <trkpt lat="56.870133788039" lon="14.789207755972">
        <ele>169</ele>
        <time>2020-02-23T07:15:20Z</time>
      </trkpt>
      <trkpt lat="56.869960953261" lon="14.78902436">
        <ele>169.2</ele>
        <time>2020-02-23T07:15:28Z</time>
      </trkpt>
      <trkpt lat="56.86985542514" lon="14.789002064146">
        <ele>168.6</ele>
        <time>2020-02-23T07:15:33Z</time>
      </trkpt>
      <trkpt lat="56.869761128765" lon="14.789296017379">
        <ele>168.2</ele>
        <time>2020-02-23T07:15:41Z</time>
      </trkpt>
      <trkpt lat="56.869752076313" lon="14.789349074806">
        <ele>167.8</ele>
        <time>2020-02-23T07:15:43Z</time>
      </trkpt>
      <trkpt lat="56.869669095503" lon="14.789686194824">
        <ele>167.2</ele>
        <time>2020-02-23T07:15:52Z</time>
      </trkpt>
      <trkpt lat="56.869606147434" lon="14.78999498402">
        <ele>168</ele>
        <time>2020-02-23T07:15:59Z</time>
      </trkpt>
      <trkpt lat="56.86953691294" lon="14.790328080726">
        <ele>168.8</ele>
        <time>2020-02-23T07:16:07Z</time>
      </trkpt>
      <trkpt lat="56.869527106117" lon="14.790371666606">
        <ele>169</ele>
        <time>2020-02-23T07:16:08Z</time>
      </trkpt>
      <trkpt lat="56.869452004293" lon="14.790705433864">
        <ele>169</ele>
        <time>2020-02-23T07:16:16Z</time>
      </trkpt>
      <trkpt lat="56.869418644331" lon="14.790887740189">
        <ele>168.8</ele>
        <time>2020-02-23T07:16:20Z</time>
      </trkpt>
      <trkpt lat="56.869313367667" lon="14.790906850921">
        <ele>168.6</ele>
        <time>2020-02-23T07:16:24Z</time>
      </trkpt>
      <trkpt lat="56.869150004436" lon="14.790745247889">
        <ele>169.4</ele>
        <time>2020-02-23T07:16:31Z</time>
      </trkpt>
      <trkpt lat="56.869011703086" lon="14.790519104227">
        <ele>170</ele>
        <time>2020-02-23T07:16:40Z</time>
      </trkpt>
      <trkpt lat="56.868988820499" lon="14.790453976864">
        <ele>170.8</ele>
        <time>2020-02-23T07:16:43Z</time>
      </trkpt>
      <trkpt lat="56.86898454573" lon="14.790431094277">
        <ele>171.2</ele>
        <time>2020-02-23T07:16:44Z</time>
      </trkpt>
      <trkpt lat="56.868957639831" lon="14.79037719866">
        <ele>172</ele>
        <time>2020-02-23T07:16:47Z</time>
      </trkpt>
      <trkpt lat="56.868946491904" lon="14.790356998281">
        <ele>172.4</ele>
        <time>2020-02-23T07:16:48Z</time>
      </trkpt>
      <trkpt lat="56.868899134169" lon="14.790244848459">
        <ele>173.8</ele>
        <time>2020-02-23T07:16:52Z</time>
      </trkpt>
      <trkpt lat="56.868847166389" lon="14.790185756064">
        <ele>175</ele>
        <time>2020-02-23T07:16:55Z</time>
      </trkpt>
      <trkpt lat="56.868808106735" lon="14.790130184067">
        <ele>176</ele>
        <time>2020-02-23T07:16:59Z</time>
      </trkpt>
      <trkpt lat="56.868794444238" lon="14.790119455235">
        <ele>176.2</ele>
        <time>2020-02-23T07:17:00Z</time>
      </trkpt>
      <trkpt lat="56.86878170375" lon="14.790113252629">
        <ele>176.4</ele>
        <time>2020-02-23T07:17:01Z</time>
      </trkpt>
      <trkpt lat="56.868699309673" lon="14.790026248507">
        <ele>177.6</ele>
        <time>2020-02-23T07:17:06Z</time>
      </trkpt>
      <trkpt lat="56.868680366579" lon="14.7900050423">
        <ele>177.8</ele>
        <time>2020-02-23T07:17:07Z</time>
      </trkpt>
      <trkpt lat="56.868536030261" lon="14.789802032682">
        <ele>178.4</ele>
        <time>2020-02-23T07:17:15Z</time>
      </trkpt>
      <trkpt lat="56.868354562126" lon="14.789661803495">
        <ele>178.6</ele>
        <time>2020-02-23T07:17:24Z</time>
      </trkpt>
      <trkpt lat="56.868334361747" lon="14.789661552038">
        <ele>178.4</ele>
        <time>2020-02-23T07:17:25Z</time>
      </trkpt>
      <trkpt lat="56.86816982505" lon="14.789718632777">
        <ele>178.8</ele>
        <time>2020-02-23T07:17:35Z</time>
      </trkpt>
      <trkpt lat="56.86798709963" lon="14.789731457084">
        <ele>177.8</ele>
        <time>2020-02-23T07:17:42Z</time>
      </trkpt>
      <trkpt lat="56.867963546491" lon="14.789740258079">
        <ele>177.8</ele>
        <time>2020-02-23T07:17:43Z</time>
      </trkpt>
      <trkpt lat="56.867936724411" lon="14.789750903092">
        <ele>177.6</ele>
        <time>2020-02-23T07:17:44Z</time>
      </trkpt>
      <trkpt lat="56.867864053338" lon="14.789764900865">
        <ele>176.6</ele>
        <time>2020-02-23T07:17:47Z</time>
      </trkpt>
      <trkpt lat="56.867753328439" lon="14.789783592502">
        <ele>175.4</ele>
        <time>2020-02-23T07:17:51Z</time>
      </trkpt>
      <trkpt lat="56.867570854476" lon="14.789819634672">
        <ele>174.8</ele>
        <time>2020-02-23T07:17:57Z</time>
      </trkpt>
      <trkpt lat="56.86740707215" lon="14.789685188996">
        <ele>174.4</ele>
        <time>2020-02-23T07:18:03Z</time>
      </trkpt>
      <trkpt lat="56.867333730525" lon="14.789536074995">
        <ele>173.4</ele>
        <time>2020-02-23T07:18:07Z</time>
      </trkpt>
      <trkpt lat="56.867269022257" lon="14.789379333465">
        <ele>172.2</ele>
        <time>2020-02-23T07:18:12Z</time>
      </trkpt>
      <trkpt lat="56.86717489352" lon="14.789041794352">
        <ele>171.6</ele>
        <time>2020-02-23T07:18:19Z</time>
      </trkpt>
      <trkpt lat="56.867031143935" lon="14.788806933514">
        <ele>171.2</ele>
        <time>2020-02-23T07:18:27Z</time>
      </trkpt>
      <trkpt lat="56.867017481438" lon="14.78878379947">
        <ele>171</ele>
        <time>2020-02-23T07:18:28Z</time>
      </trkpt>
      <trkpt lat="56.866975488119" lon="14.788694699873">
        <ele>171</ele>
        <time>2020-02-23T07:18:31Z</time>
      </trkpt>
      <trkpt lat="56.866896195345" lon="14.788530582271">
        <ele>169.8</ele>
        <time>2020-02-23T07:18:37Z</time>
      </trkpt>
      <trkpt lat="56.866847580325" lon="14.788411810748">
        <ele>169</ele>
        <time>2020-02-23T07:18:41Z</time>
      </trkpt>
      <trkpt lat="56.866766275895" lon="14.788252051734">
        <ele>169.2</ele>
        <time>2020-02-23T07:18:46Z</time>
      </trkpt>
      <trkpt lat="56.866658819937" lon="14.788184912715">
        <ele>169.6</ele>
        <time>2020-02-23T07:18:51Z</time>
      </trkpt>
      <trkpt lat="56.866545077554" lon="14.788043845338">
        <ele>169.4</ele>
        <time>2020-02-23T07:18:57Z</time>
      </trkpt>
      <trkpt lat="56.866500402027" lon="14.787810996156">
        <ele>168.6</ele>
        <time>2020-02-23T07:19:02Z</time>
      </trkpt>
      <trkpt lat="56.866466371513" lon="14.787626845813">
        <ele>167.6</ele>
        <time>2020-02-23T07:19:07Z</time>
      </trkpt>
      <trkpt lat="56.866456983785" lon="14.787297101867">
        <ele>167.2</ele>
        <time>2020-02-23T07:19:15Z</time>
      </trkpt>
      <trkpt lat="56.866460588002" lon="14.787182353656">
        <ele>166.6</ele>
        <time>2020-02-23T07:19:18Z</time>
      </trkpt>
      <trkpt lat="56.866432676275" lon="14.7868366841">
        <ele>166.4</ele>
        <time>2020-02-23T07:19:25Z</time>
      </trkpt>
      <trkpt lat="56.86639956777" lon="14.786626549867">
        <ele>167.2</ele>
        <time>2020-02-23T07:19:30Z</time>
      </trkpt>
      <trkpt lat="56.866410296602" lon="14.786244335227">
        <ele>165.6</ele>
        <time>2020-02-23T07:19:38Z</time>
      </trkpt>
      <trkpt lat="56.866380708495" lon="14.785851224117">
        <ele>165.2</ele>
        <time>2020-02-23T07:19:44Z</time>
      </trkpt>
      <trkpt lat="56.866344582506" lon="14.785505219285">
        <ele>166.4</ele>
        <time>2020-02-23T07:19:50Z</time>
      </trkpt>
      <trkpt lat="56.866336787339" lon="14.785451658944">
        <ele>166.8</ele>
        <time>2020-02-23T07:19:51Z</time>
      </trkpt>
      <trkpt lat="56.866320526453" lon="14.785105989388">
        <ele>166.6</ele>
        <time>2020-02-23T07:19:58Z</time>
      </trkpt>
      <trkpt lat="56.866401663245" lon="14.784811784698">
        <ele>166.2</ele>
        <time>2020-02-23T07:20:06Z</time>
      </trkpt>
      <trkpt lat="56.866492774498" lon="14.784692761718">
        <ele>165.8</ele>
        <time>2020-02-23T07:20:11Z</time>
      </trkpt>
      <trkpt lat="56.866686983121" lon="14.784571559444">
        <ele>166.2</ele>
        <time>2020-02-23T07:20:19Z</time>
      </trkpt>
      <trkpt lat="56.866891501481" lon="14.784522609148">
        <ele>165.8</ele>
        <time>2020-02-23T07:20:27Z</time>
      </trkpt>
      <trkpt lat="56.867088140855" lon="14.784486902254">
        <ele>166</ele>
        <time>2020-02-23T07:20:34Z</time>
      </trkpt>
      <trkpt lat="56.86720590655" lon="14.784292525993">
        <ele>165.8</ele>
        <time>2020-02-23T07:20:42Z</time>
      </trkpt>
      <trkpt lat="56.867131056183" lon="14.78394660498">
        <ele>166</ele>
        <time>2020-02-23T07:20:51Z</time>
      </trkpt>
      <trkpt lat="56.867071041779" lon="14.783707888468">
        <ele>166.8</ele>
        <time>2020-02-23T07:20:57Z</time>
      </trkpt>
      <trkpt lat="56.867004992407" lon="14.783490461982">
        <ele>167</ele>
        <time>2020-02-23T07:21:04Z</time>
      </trkpt>
      <trkpt lat="56.866957467034" lon="14.783144624788">
        <ele>167.4</ele>
        <time>2020-02-23T07:21:13Z</time>
      </trkpt>
      <trkpt lat="56.866925615814" lon="14.783021829953">
        <ele>167.8</ele>
        <time>2020-02-23T07:21:16Z</time>
      </trkpt>
      <trkpt lat="56.866899799562" lon="14.782679596976">
        <ele>168.2</ele>
        <time>2020-02-23T07:21:22Z</time>
      </trkpt>
      <trkpt lat="56.866909438747" lon="14.782308446444">
        <ele>168.8</ele>
        <time>2020-02-23T07:21:30Z</time>
      </trkpt>
      <trkpt lat="56.866908265281" lon="14.782158075158">
        <ele>169</ele>
        <time>2020-02-23T07:21:33Z</time>
      </trkpt>
      <trkpt lat="56.866915808991" lon="14.782074507615">
        <ele>169.2</ele>
        <time>2020-02-23T07:21:35Z</time>
      </trkpt>
      <trkpt lat="56.866955706835" lon="14.781697992667">
        <ele>169.8</ele>
        <time>2020-02-23T07:21:43Z</time>
      </trkpt>
      <trkpt lat="56.866957718491" lon="14.781417031379">
        <ele>170.2</ele>
        <time>2020-02-23T07:21:48Z</time>
      </trkpt>
      <trkpt lat="56.866993425385" lon="14.781090388736">
        <ele>170.2</ele>
        <time>2020-02-23T07:21:54Z</time>
      </trkpt>
      <trkpt lat="56.867052853056" lon="14.780793418019">
        <ele>171.2</ele>
        <time>2020-02-23T07:22:00Z</time>
      </trkpt>
      <trkpt lat="56.867098282954" lon="14.78046476372">
        <ele>171.2</ele>
        <time>2020-02-23T07:22:06Z</time>
      </trkpt>
      <trkpt lat="56.86710616194" lon="14.780118423612">
        <ele>171.2</ele>
        <time>2020-02-23T07:22:14Z</time>
      </trkpt>
      <trkpt lat="56.867101803352" lon="14.779748781822">
        <ele>171.2</ele>
        <time>2020-02-23T07:22:21Z</time>
      </trkpt>
      <trkpt lat="56.867051595771" lon="14.779391293787">
        <ele>170.2</ele>
        <time>2020-02-23T07:22:29Z</time>
      </trkpt>
      <trkpt lat="56.867014212497" lon="14.779180908097">
        <ele>170.2</ele>
        <time>2020-02-23T07:22:34Z</time>
      </trkpt>
      <trkpt lat="56.86697456611" lon="14.778816714542">
        <ele>170.4</ele>
        <time>2020-02-23T07:22:42Z</time>
      </trkpt>
      <trkpt lat="56.866941206148" lon="14.778460399973">
        <ele>170.6</ele>
        <time>2020-02-23T07:22:50Z</time>
      </trkpt>
      <trkpt lat="56.866929722945" lon="14.778359565716">
        <ele>171.2</ele>
        <time>2020-02-23T07:22:52Z</time>
      </trkpt>
      <trkpt lat="56.866896279164" lon="14.778002496776">
        <ele>171.4</ele>
        <time>2020-02-23T07:22:59Z</time>
      </trkpt>
      <trkpt lat="56.866924777624" lon="14.777684990404">
        <ele>171</ele>
        <time>2020-02-23T07:23:06Z</time>
      </trkpt>
      <trkpt lat="56.867021756207" lon="14.777400843994">
        <ele>171.6</ele>
        <time>2020-02-23T07:23:13Z</time>
      </trkpt>
      <trkpt lat="56.867037681817" lon="14.777310570931">
        <ele>171.6</ele>
        <time>2020-02-23T07:23:15Z</time>
      </trkpt>
      <trkpt lat="56.867102641542" lon="14.776975294931">
        <ele>170.4</ele>
        <time>2020-02-23T07:23:22Z</time>
      </trkpt>
      <trkpt lat="56.867119321523" lon="14.776934139802">
        <ele>170</ele>
        <time>2020-02-23T07:23:23Z</time>
      </trkpt>
      <trkpt lat="56.86721428845" lon="14.776654184342">
        <ele>169.8</ele>
        <time>2020-02-23T07:23:29Z</time>
      </trkpt>
      <trkpt lat="56.867265334221" lon="14.77632075236">
        <ele>170</ele>
        <time>2020-02-23T07:23:36Z</time>
      </trkpt>
      <trkpt lat="56.867287378618" lon="14.77596703618">
        <ele>170.2</ele>
        <time>2020-02-23T07:23:43Z</time>
      </trkpt>
      <trkpt lat="56.867268603162" lon="14.77560577629">
        <ele>170.2</ele>
        <time>2020-02-23T07:23:51Z</time>
      </trkpt>
      <trkpt lat="56.867245469118" lon="14.77523948726">
        <ele>170.6</ele>
        <time>2020-02-23T07:23:59Z</time>
      </trkpt>
      <trkpt lat="56.867260975633" lon="14.775008482096">
        <ele>170.2</ele>
        <time>2020-02-23T07:24:04Z</time>
      </trkpt>
      <trkpt lat="56.867451328582" lon="14.774906809649">
        <ele>170.6</ele>
        <time>2020-02-23T07:24:12Z</time>
      </trkpt>
      <trkpt lat="56.867573369046" lon="14.774913766626">
        <ele>171.2</ele>
        <time>2020-02-23T07:24:17Z</time>
      </trkpt>
      <trkpt lat="56.867752825525" lon="14.77494109162">
        <ele>171</ele>
        <time>2020-02-23T07:24:24Z</time>
      </trkpt>
      <trkpt lat="56.867951979469" lon="14.77495450266">
        <ele>171.2</ele>
        <time>2020-02-23T07:24:32Z</time>
      </trkpt>
      <trkpt lat="56.868148283567" lon="14.774949641158">
        <ele>171.6</ele>
        <time>2020-02-23T07:24:40Z</time>
      </trkpt>
      <trkpt lat="56.868219445898" lon="14.774946791312">
        <ele>172.2</ele>
        <time>2020-02-23T07:24:43Z</time>
      </trkpt>
      <trkpt lat="56.868417174919" lon="14.77498216293">
        <ele>173</ele>
        <time>2020-02-23T07:24:51Z</time>
      </trkpt>
      <trkpt lat="56.86861322756" lon="14.775023820973">
        <ele>173</ele>
        <time>2020-02-23T07:24:59Z</time>
      </trkpt>
      <trkpt lat="56.868814309341" lon="14.775042596429">
        <ele>172.8</ele>
        <time>2020-02-23T07:25:06Z</time>
      </trkpt>
      <trkpt lat="56.868889746441" lon="14.77504167442">
        <ele>172.8</ele>
        <time>2020-02-23T07:25:09Z</time>
      </trkpt>
      <trkpt lat="56.869069035282" lon="14.775068915595">
        <ele>173</ele>
        <time>2020-02-23T07:25:16Z</time>
      </trkpt>
      <trkpt lat="56.869212784867" lon="14.775081488445">
        <ele>173.4</ele>
        <time>2020-02-23T07:25:22Z</time>
      </trkpt>
      <trkpt lat="56.869407664042" lon="14.775056845659">
        <ele>173.2</ele>
        <time>2020-02-23T07:25:29Z</time>
      </trkpt>
      <trkpt lat="56.86960815909" lon="14.775096240589">
        <ele>173</ele>
        <time>2020-02-23T07:25:37Z</time>
      </trkpt>
      <trkpt lat="56.869788705216" lon="14.775121973022">
        <ele>172.8</ele>
        <time>2020-02-23T07:25:44Z</time>
      </trkpt>
      <trkpt lat="56.869970340989" lon="14.775131696026">
        <ele>173.6</ele>
        <time>2020-02-23T07:25:51Z</time>
      </trkpt>
      <trkpt lat="56.87004066513" lon="14.77514728636">
        <ele>174.4</ele>
        <time>2020-02-23T07:25:54Z</time>
      </trkpt>
      <trkpt lat="56.870232191545" lon="14.775180311046">
        <ele>174.8</ele>
        <time>2020-02-23T07:26:01Z</time>
      </trkpt>
      <trkpt lat="56.870424220874" lon="14.775222807279">
        <ele>174.6</ele>
        <time>2020-02-23T07:26:08Z</time>
      </trkpt>
      <trkpt lat="56.870603761172" lon="14.775280726208">
        <ele>175.8</ele>
        <time>2020-02-23T07:26:15Z</time>
      </trkpt>
      <trkpt lat="56.870732590975" lon="14.77531576255">
        <ele>177.2</ele>
        <time>2020-02-23T07:26:20Z</time>
      </trkpt>
      <trkpt lat="56.870912634187" lon="14.77533755549">
        <ele>177.4</ele>
        <time>2020-02-23T07:26:27Z</time>
      </trkpt>
      <trkpt lat="56.871119918574" lon="14.775355325118">
        <ele>176.4</ele>
        <time>2020-02-23T07:26:34Z</time>
      </trkpt>
      <trkpt lat="56.871302560175" lon="14.775366221588">
        <ele>176.8</ele>
        <time>2020-02-23T07:26:40Z</time>
      </trkpt>
      <trkpt lat="56.871384870433" lon="14.775317774206">
        <ele>176.6</ele>
        <time>2020-02-23T07:26:43Z</time>
      </trkpt>
      <trkpt lat="56.87139015103" lon="14.775174443716">
        <ele>176.2</ele>
        <time>2020-02-23T07:26:46Z</time>
      </trkpt>
      <trkpt lat="56.871308176048" lon="14.774847717254">
        <ele>175.6</ele>
        <time>2020-02-23T07:26:53Z</time>
      </trkpt>
      <trkpt lat="56.871257884648" lon="14.7746577834">
        <ele>175</ele>
        <time>2020-02-23T07:26:58Z</time>
      </trkpt>
      <trkpt lat="56.871175322933" lon="14.774362908158">
        <ele>175</ele>
        <time>2020-02-23T07:27:05Z</time>
      </trkpt>
      <trkpt lat="56.87107834435" lon="14.774029559995">
        <ele>176</ele>
        <time>2020-02-23T07:27:12Z</time>
      </trkpt>
      <trkpt lat="56.871064598034" lon="14.773983375726">
        <ele>176</ele>
        <time>2020-02-23T07:27:13Z</time>
      </trkpt>
      <trkpt lat="56.870986897821" lon="14.773684225715">
        <ele>176.2</ele>
        <time>2020-02-23T07:27:20Z</time>
      </trkpt>
      <trkpt lat="56.870947251434" lon="14.773563023441">
        <ele>177.4</ele>
        <time>2020-02-23T07:27:23Z</time>
      </trkpt>
      <trkpt lat="56.870866366099" lon="14.77326052067">
        <ele>177.6</ele>
        <time>2020-02-23T07:27:30Z</time>
      </trkpt>
      <trkpt lat="56.870823450771" lon="14.772930189991">
        <ele>177.4</ele>
        <time>2020-02-23T07:27:37Z</time>
      </trkpt>
      <trkpt lat="56.870975414618" lon="14.772700945026">
        <ele>177.6</ele>
        <time>2020-02-23T07:27:44Z</time>
      </trkpt>
      <trkpt lat="56.871023442905" lon="14.772647217047">
        <ele>177.6</ele>
        <time>2020-02-23T07:27:46Z</time>
      </trkpt>
      <trkpt lat="56.871186303222" lon="14.772451164406">
        <ele>177.6</ele>
        <time>2020-02-23T07:27:53Z</time>
      </trkpt>
      <trkpt lat="56.871339356716" lon="14.772240611078">
        <ele>177.8</ele>
        <time>2020-02-23T07:28:00Z</time>
      </trkpt>
      <trkpt lat="56.871462403008" lon="14.771994183218">
        <ele>178</ele>
        <time>2020-02-23T07:28:07Z</time>
      </trkpt>
      <trkpt lat="56.871500373015" lon="14.771920925412">
        <ele>178.4</ele>
        <time>2020-02-23T07:28:09Z</time>
      </trkpt>
      <trkpt lat="56.871623084031" lon="14.77176686609">
        <ele>177.4</ele>
        <time>2020-02-23T07:28:15Z</time>
      </trkpt>
      <trkpt lat="56.871781837217" lon="14.771608615818">
        <ele>177.2</ele>
        <time>2020-02-23T07:28:22Z</time>
      </trkpt>
      <trkpt lat="56.871934639254" lon="14.771448856804">
        <ele>176.4</ele>
        <time>2020-02-23T07:28:28Z</time>
      </trkpt>
      <trkpt lat="56.872089117671" lon="14.771253139439">
        <ele>175.6</ele>
        <time>2020-02-23T07:28:35Z</time>
      </trkpt>
      <trkpt lat="56.87212608185" lon="14.771198657089">
        <ele>175.2</ele>
        <time>2020-02-23T07:28:37Z</time>
      </trkpt>
      <trkpt lat="56.872206464271" lon="14.771109138397">
        <ele>174</ele>
        <time>2020-02-23T07:28:41Z</time>
      </trkpt>
      <trkpt lat="56.872363457258" lon="14.771004448466">
        <ele>172.8</ele>
        <time>2020-02-23T07:28:48Z</time>
      </trkpt>
      <trkpt lat="56.872446521887" lon="14.770924066045">
        <ele>171.4</ele>
        <time>2020-02-23T07:28:51Z</time>
      </trkpt>
      <trkpt lat="56.872504273178" lon="14.770842510158">
        <ele>170.8</ele>
        <time>2020-02-23T07:28:53Z</time>
      </trkpt>
      <trkpt lat="56.872613405516" lon="14.770691216863">
        <ele>170.4</ele>
        <time>2020-02-23T07:28:57Z</time>
      </trkpt>
      <trkpt lat="56.872775092367" lon="14.770477394594">
        <ele>169.6</ele>
        <time>2020-02-23T07:29:05Z</time>
      </trkpt>
      <trkpt lat="56.872859665738" lon="14.770336159579">
        <ele>169.2</ele>
        <time>2020-02-23T07:29:10Z</time>
      </trkpt>
      <trkpt lat="56.872997212717" lon="14.770059556879">
        <ele>168.4</ele>
        <time>2020-02-23T07:29:18Z</time>
      </trkpt>
      <trkpt lat="56.873139956474" lon="14.769801813454">
        <ele>168.6</ele>
        <time>2020-02-23T07:29:25Z</time>
      </trkpt>
      <trkpt lat="56.87320567057" lon="14.769697458799">
        <ele>168.2</ele>
        <time>2020-02-23T07:29:28Z</time>
      </trkpt>
      <trkpt lat="56.8733121207" lon="14.76941825771">
        <ele>168.4</ele>
        <time>2020-02-23T07:29:34Z</time>
      </trkpt>
      <trkpt lat="56.873359729892" lon="14.769276855057">
        <ele>169.4</ele>
        <time>2020-02-23T07:29:37Z</time>
      </trkpt>
      <trkpt lat="56.873506664599" lon="14.769030846292">
        <ele>169.2</ele>
        <time>2020-02-23T07:29:44Z</time>
      </trkpt>
      <trkpt lat="56.873647145243" lon="14.768812330159">
        <ele>168.8</ele>
        <time>2020-02-23T07:29:50Z</time>
      </trkpt>
      <trkpt lat="56.873685701983" lon="14.768726667141">
        <ele>168.4</ele>
        <time>2020-02-23T07:29:52Z</time>
      </trkpt>
      <trkpt lat="56.873721576515" lon="14.768540505142">
        <ele>167.4</ele>
        <time>2020-02-23T07:29:56Z</time>
      </trkpt>
      <trkpt lat="56.873736915392" lon="14.768168181144">
        <ele>167.6</ele>
        <time>2020-02-23T07:30:03Z</time>
      </trkpt>
      <trkpt lat="56.873759797979" lon="14.767861990337">
        <ele>168.4</ele>
        <time>2020-02-23T07:30:10Z</time>
      </trkpt>
      <trkpt lat="56.873800617832" lon="14.767522355749">
        <ele>169.4</ele>
        <time>2020-02-23T07:30:18Z</time>
      </trkpt>
      <trkpt lat="56.873801120746" lon="14.767478183136">
        <ele>169.6</ele>
        <time>2020-02-23T07:30:19Z</time>
      </trkpt>
      <trkpt lat="56.873777986702" lon="14.767114241038">
        <ele>170.6</ele>
        <time>2020-02-23T07:30:27Z</time>
      </trkpt>
      <trkpt lat="56.873708081656" lon="14.766787346938">
        <ele>171.4</ele>
        <time>2020-02-23T07:30:34Z</time>
      </trkpt>
      <trkpt lat="56.873702130507" lon="14.766730350018">
        <ele>171.6</ele>
        <time>2020-02-23T07:30:35Z</time>
      </trkpt>
      <trkpt lat="56.873674805513" lon="14.766392643267">
        <ele>171.8</ele>
        <time>2020-02-23T07:30:42Z</time>
      </trkpt>
      <trkpt lat="56.873706321457" lon="14.766030545187">
        <ele>170.8</ele>
        <time>2020-02-23T07:30:49Z</time>
      </trkpt>
      <trkpt lat="56.873710931502" lon="14.765985282927">
        <ele>170.6</ele>
        <time>2020-02-23T07:30:50Z</time>
      </trkpt>
      <trkpt lat="56.873751416079" lon="14.765769700459">
        <ele>169.4</ele>
        <time>2020-02-23T07:30:55Z</time>
      </trkpt>
      <trkpt lat="56.873804222049" lon="14.765436352296">
        <ele>168.8</ele>
        <time>2020-02-23T07:31:02Z</time>
      </trkpt>
      <trkpt lat="56.873850825413" lon="14.76510325559">
        <ele>168.6</ele>
        <time>2020-02-23T07:31:09Z</time>
      </trkpt>
      <trkpt lat="56.873989210582" lon="14.764859174662">
        <ele>168.8</ele>
        <time>2020-02-23T07:31:16Z</time>
      </trkpt>
      <trkpt lat="56.874173696201" lon="14.764806201054">
        <ele>169.4</ele>
        <time>2020-02-23T07:31:23Z</time>
      </trkpt>
      <trkpt lat="56.874349045549" lon="14.764853810246">
        <ele>168.4</ele>
        <time>2020-02-23T07:31:30Z</time>
      </trkpt>
      <trkpt lat="56.874543170353" lon="14.764789269616">
        <ele>168.2</ele>
        <time>2020-02-23T07:31:37Z</time>
      </trkpt>
      <trkpt lat="56.87471525076" lon="14.764640071796">
        <ele>168.6</ele>
        <time>2020-02-23T07:31:44Z</time>
      </trkpt>
      <trkpt lat="56.874893198497" lon="14.764514678572">
        <ele>168.8</ele>
        <time>2020-02-23T07:31:52Z</time>
      </trkpt>
      <trkpt lat="56.875084305817" lon="14.764577542822">
        <ele>168.8</ele>
        <time>2020-02-23T07:32:01Z</time>
      </trkpt>
      <trkpt lat="56.875262672649" lon="14.7646078853">
        <ele>169.6</ele>
        <time>2020-02-23T07:32:09Z</time>
      </trkpt>
      <trkpt lat="56.875395693402" lon="14.764695727612">
        <ele>170.8</ele>
        <time>2020-02-23T07:32:14Z</time>
      </trkpt>
      <trkpt lat="56.875580681935" lon="14.764778289327">
        <ele>170.6</ele>
        <time>2020-02-23T07:32:20Z</time>
      </trkpt>
      <trkpt lat="56.875772375988" lon="14.764791532729">
        <ele>171.4</ele>
        <time>2020-02-23T07:32:27Z</time>
      </trkpt>
      <trkpt lat="56.875854770065" lon="14.764792957652">
        <ele>171.8</ele>
        <time>2020-02-23T07:32:30Z</time>
      </trkpt>
      <trkpt lat="56.876038920408" lon="14.764738391483">
        <ele>171.8</ele>
        <time>2020-02-23T07:32:37Z</time>
      </trkpt>
      <trkpt lat="56.876213683023" lon="14.764564131782">
        <ele>172</ele>
        <time>2020-02-23T07:32:44Z</time>
      </trkpt>
      <trkpt lat="56.876321893352" lon="14.764289121643">
        <ele>172</ele>
        <time>2020-02-23T07:32:51Z</time>
      </trkpt>
      <trkpt lat="56.876468325145" lon="14.764085944387">
        <ele>172.4</ele>
        <time>2020-02-23T07:32:58Z</time>
      </trkpt>
      <trkpt lat="56.876593718369" lon="14.763973543108">
        <ele>173</ele>
        <time>2020-02-23T07:33:05Z</time>
      </trkpt>
      <trkpt lat="56.876726152389" lon="14.763703645928">
        <ele>173.4</ele>
        <time>2020-02-23T07:33:12Z</time>
      </trkpt>
      <trkpt lat="56.876845845921" lon="14.763449339082">
        <ele>173</ele>
        <time>2020-02-23T07:33:18Z</time>
      </trkpt>
      <trkpt lat="56.876968640756" lon="14.76320224067">
        <ele>173</ele>
        <time>2020-02-23T07:33:24Z</time>
      </trkpt>
      <trkpt lat="56.877068217728" lon="14.762919854459">
        <ele>172.4</ele>
        <time>2020-02-23T07:33:30Z</time>
      </trkpt>
      <trkpt lat="56.877134434738" lon="14.76274626531">
        <ele>172</ele>
        <time>2020-02-23T07:33:34Z</time>
      </trkpt>
      <trkpt lat="56.877244656723" lon="14.762447953489">
        <ele>171.6</ele>
        <time>2020-02-23T07:33:41Z</time>
      </trkpt>
      <trkpt lat="56.877377174562" lon="14.762171602246">
        <ele>172.2</ele>
        <time>2020-02-23T07:33:48Z</time>
      </trkpt>
      <trkpt lat="56.877528132581" lon="14.7619843506">
        <ele>172.4</ele>
        <time>2020-02-23T07:33:54Z</time>
      </trkpt>
      <trkpt lat="56.877694680934" lon="14.76179659604">
        <ele>172</ele>
        <time>2020-02-23T07:34:01Z</time>
      </trkpt>
      <trkpt lat="56.877831557361" lon="14.761554778225">
        <ele>171.2</ele>
        <time>2020-02-23T07:34:08Z</time>
      </trkpt>
      <trkpt lat="56.87796156063" lon="14.761272392014">
        <ele>172.2</ele>
        <time>2020-02-23T07:34:16Z</time>
      </trkpt>
      <trkpt lat="56.87805292334" lon="14.760988999975">
        <ele>173</ele>
        <time>2020-02-23T07:34:23Z</time>
      </trkpt>
      <trkpt lat="56.878063735991" lon="14.760940301136">
        <ele>173.2</ele>
        <time>2020-02-23T07:34:24Z</time>
      </trkpt>
      <trkpt lat="56.878114865581" lon="14.760596140322">
        <ele>173.6</ele>
        <time>2020-02-23T07:34:32Z</time>
      </trkpt>
      <trkpt lat="56.878145208059" lon="14.7602660611">
        <ele>172.4</ele>
        <time>2020-02-23T07:34:39Z</time>
      </trkpt>
      <trkpt lat="56.878213520544" lon="14.759937909715">
        <ele>173.8</ele>
        <time>2020-02-23T07:34:46Z</time>
      </trkpt>
      <trkpt lat="56.878257860795" lon="14.759825759893">
        <ele>174.4</ele>
        <time>2020-02-23T07:34:49Z</time>
      </trkpt>
      <trkpt lat="56.878403957312" lon="14.75959970005">
        <ele>175.4</ele>
        <time>2020-02-23T07:34:56Z</time>
      </trkpt>
      <trkpt lat="56.878558016634" lon="14.759361318814">
        <ele>174</ele>
        <time>2020-02-23T07:35:03Z</time>
      </trkpt>
      <trkpt lat="56.878683828953" lon="14.759073735825">
        <ele>173.8</ele>
        <time>2020-02-23T07:35:10Z</time>
      </trkpt>
      <trkpt lat="56.878830260746" lon="14.758807526681">
        <ele>174.2</ele>
        <time>2020-02-23T07:35:17Z</time>
      </trkpt>
      <trkpt lat="56.878989265389" lon="14.758585909245">
        <ele>174.2</ele>
        <time>2020-02-23T07:35:24Z</time>
      </trkpt>
      <trkpt lat="56.879124381617" lon="14.758328501096">
        <ele>173.6</ele>
        <time>2020-02-23T07:35:31Z</time>
      </trkpt>
      <trkpt lat="56.879228317177" lon="14.758117947768">
        <ele>173.2</ele>
        <time>2020-02-23T07:35:37Z</time>
      </trkpt>
      <trkpt lat="56.879332252737" lon="14.757930947579">
        <ele>172</ele>
        <time>2020-02-23T07:35:42Z</time>
      </trkpt>
      <trkpt lat="56.879406097276" lon="14.757863724741">
        <ele>170.6</ele>
        <time>2020-02-23T07:35:45Z</time>
      </trkpt>
      <trkpt lat="56.8795817819" lon="14.757728273237">
        <ele>170.4</ele>
        <time>2020-02-23T07:35:52Z</time>
      </trkpt>
      <trkpt lat="56.879682197062" lon="14.757420154593">
        <ele>169.8</ele>
        <time>2020-02-23T07:35:59Z</time>
      </trkpt>
      <trkpt lat="56.879695021369" lon="14.757377406903">
        <ele>169.4</ele>
        <time>2020-02-23T07:36:00Z</time>
      </trkpt>
      <trkpt lat="56.879732823738" lon="14.757247152177">
        <ele>168.4</ele>
        <time>2020-02-23T07:36:03Z</time>
      </trkpt>
      <trkpt lat="56.879786467898" lon="14.756901482621">
        <ele>168.2</ele>
        <time>2020-02-23T07:36:11Z</time>
      </trkpt>
      <trkpt lat="56.879840112058" lon="14.756587329009">
        <ele>168.4</ele>
        <time>2020-02-23T07:36:19Z</time>
      </trkpt>
      <trkpt lat="56.879925188343" lon="14.756254651398">
        <ele>168.4</ele>
        <time>2020-02-23T07:36:27Z</time>
      </trkpt>
      <trkpt lat="56.880004313479" lon="14.755908478928">
        <ele>168.4</ele>
        <time>2020-02-23T07:36:34Z</time>
      </trkpt>
      <trkpt lat="56.880142447191" lon="14.755667918398">
        <ele>168.4</ele>
        <time>2020-02-23T07:36:41Z</time>
      </trkpt>
      <trkpt lat="56.880307905897" lon="14.755501202407">
        <ele>168.2</ele>
        <time>2020-02-23T07:36:48Z</time>
      </trkpt>
      <trkpt lat="56.880476717363" lon="14.755288637423">
        <ele>167.8</ele>
        <time>2020-02-23T07:36:56Z</time>
      </trkpt>
      <trkpt lat="56.880563218571" lon="14.755170452633">
        <ele>167.2</ele>
        <time>2020-02-23T07:37:00Z</time>
      </trkpt>
      <trkpt lat="56.88071417659" lon="14.754983452444">
        <ele>167.2</ele>
        <time>2020-02-23T07:37:07Z</time>
      </trkpt>
      <trkpt lat="56.880904529539" lon="14.754839116126">
        <ele>167.4</ele>
        <time>2020-02-23T07:37:15Z</time>
      </trkpt>
      <trkpt lat="56.88109722942" lon="14.7548094442">
        <ele>167.2</ele>
        <time>2020-02-23T07:37:23Z</time>
      </trkpt>
      <trkpt lat="56.881120866378" lon="14.754814976254">
        <ele>167</ele>
        <time>2020-02-23T07:37:24Z</time>
      </trkpt>
      <trkpt lat="56.881166380095" lon="14.754944979523">
        <ele>167.2</ele>
        <time>2020-02-23T07:37:29Z</time>
      </trkpt>
      <trkpt lat="56.881240392272" lon="14.755205488975">
        <ele>168</ele>
        <time>2020-02-23T07:37:37Z</time>
      </trkpt>
      <trkpt lat="56.881252546027" lon="14.755245973552">
        <ele>168</ele>
        <time>2020-02-23T07:37:40Z</time>
      </trkpt>
      <trkpt lat="56.881273752234" lon="14.755269023777">
        <ele>167.8</ele>
        <time>2020-02-23T07:37:43Z</time>
      </trkpt>
      <trkpt lat="56.881279619564" lon="14.75527631603">
        <ele>167.4</ele>
        <time>2020-02-23T07:37:45Z</time>
      </trkpt>
      <trkpt lat="56.881299903762" lon="14.755372121147">
        <ele>167.2</ele>
        <time>2020-02-23T07:37:48Z</time>
      </trkpt>
      <trkpt lat="56.88139478687" lon="14.755436242682">
        <ele>167.2</ele>
        <time>2020-02-23T07:37:50Z</time>
      </trkpt>
      <trkpt lat="56.881572231693" lon="14.755466082246">
        <ele>168.4</ele>
        <time>2020-02-23T07:37:56Z</time>
      </trkpt>
      <trkpt lat="56.881652362657" lon="14.755424843298">
        <ele>169.4</ele>
        <time>2020-02-23T07:37:59Z</time>
      </trkpt>
      <trkpt lat="56.881830142756" lon="14.755324679593">
        <ele>170.4</ele>
        <time>2020-02-23T07:38:06Z</time>
      </trkpt>
      <trkpt lat="56.881898371422" lon="14.755294001839">
        <ele>170.4</ele>
        <time>2020-02-23T07:38:09Z</time>
      </trkpt>
      <trkpt lat="56.882064081585" lon="14.755140026336">
        <ele>170.2</ele>
        <time>2020-02-23T07:38:16Z</time>
      </trkpt>
      <trkpt lat="56.882220990753" lon="14.754992923991">
        <ele>169.4</ele>
        <time>2020-02-23T07:38:23Z</time>
      </trkpt>
      <trkpt lat="56.882412768625" lon="14.754990074145">
        <ele>169</ele>
        <time>2020-02-23T07:38:31Z</time>
      </trkpt>
      <trkpt lat="56.882520224583" lon="14.755021422451">
        <ele>168.8</ele>
        <time>2020-02-23T07:38:35Z</time>
      </trkpt>
      <trkpt lat="56.882563894282" lon="14.754951601224">
        <ele>168.6</ele>
        <time>2020-02-23T07:38:37Z</time>
      </trkpt>
      <trkpt lat="56.882581580091" lon="14.754903405299">
        <ele>168.4</ele>
        <time>2020-02-23T07:38:38Z</time>
      </trkpt>
      <trkpt lat="56.882654418802" lon="14.75460157308">
        <ele>167.4</ele>
        <time>2020-02-23T07:38:44Z</time>
      </trkpt>
      <trkpt lat="56.882720971088" lon="14.754265375071">
        <ele>167.8</ele>
        <time>2020-02-23T07:38:51Z</time>
      </trkpt>
      <trkpt lat="56.882809986866" lon="14.753949628898">
        <ele>167.6</ele>
        <time>2020-02-23T07:38:58Z</time>
      </trkpt>
      <trkpt lat="56.882851896366" lon="14.753879137119">
        <ele>167.2</ele>
        <time>2020-02-23T07:39:00Z</time>
      </trkpt>
      <trkpt lat="56.88295633484" lon="14.753730274575">
        <ele>166</ele>
        <time>2020-02-23T07:39:05Z</time>
      </trkpt>
      <trkpt lat="56.883094049457" lon="14.753495329918">
        <ele>166</ele>
        <time>2020-02-23T07:39:12Z</time>
      </trkpt>
      <trkpt lat="56.883235787386" lon="14.753262229279">
        <ele>166.4</ele>
        <time>2020-02-23T07:39:19Z</time>
      </trkpt>
      <trkpt lat="56.883326479544" lon="14.753084113904">
        <ele>164.8</ele>
        <time>2020-02-23T07:39:24Z</time>
      </trkpt>
      <trkpt lat="56.883463272152" lon="14.752828298316">
        <ele>165.8</ele>
        <time>2020-02-23T07:39:31Z</time>
      </trkpt>
      <trkpt lat="56.88348187997" lon="14.75279862639">
        <ele>166.2</ele>
        <time>2020-02-23T07:39:32Z</time>
      </trkpt>
      <trkpt lat="56.883619426949" lon="14.752578433877">
        <ele>166</ele>
        <time>2020-02-23T07:39:39Z</time>
      </trkpt>
      <trkpt lat="56.883729816572" lon="14.75239210424">
        <ele>167.4</ele>
        <time>2020-02-23T07:39:45Z</time>
      </trkpt>
      <trkpt lat="56.88386912375" lon="14.752180461265">
        <ele>166.6</ele>
        <time>2020-02-23T07:39:52Z</time>
      </trkpt>
      <trkpt lat="56.883916313847" lon="14.752165709121">
        <ele>166.8</ele>
        <time>2020-02-23T07:39:54Z</time>
      </trkpt>
      <trkpt lat="56.884094261584" lon="14.752294203648">
        <ele>167.6</ele>
        <time>2020-02-23T07:40:01Z</time>
      </trkpt>
      <trkpt lat="56.884269191837" lon="14.752430493342">
        <ele>167.4</ele>
        <time>2020-02-23T07:40:08Z</time>
      </trkpt>
      <trkpt lat="56.884434399086" lon="14.7525798588">
        <ele>167</ele>
        <time>2020-02-23T07:40:15Z</time>
      </trkpt>
      <trkpt lat="56.884613520289" lon="14.752748251171">
        <ele>168</ele>
        <time>2020-02-23T07:40:23Z</time>
      </trkpt>
      <trkpt lat="56.884747379232" lon="14.752845732668">
        <ele>168.6</ele>
        <time>2020-02-23T07:40:29Z</time>
      </trkpt>
      <trkpt lat="56.884891380274" lon="14.752645908172">
        <ele>169.2</ele>
        <time>2020-02-23T07:40:36Z</time>
      </trkpt>
      <trkpt lat="56.884994729101" lon="14.752323624117">
        <ele>169</ele>
        <time>2020-02-23T07:40:44Z</time>
      </trkpt>
      <trkpt lat="56.88506438269" lon="14.752012990903">
        <ele>168.6</ele>
        <time>2020-02-23T07:40:51Z</time>
      </trkpt>
      <trkpt lat="56.8851138359" lon="14.751695233074">
        <ele>168.2</ele>
        <time>2020-02-23T07:40:58Z</time>
      </trkpt>
      <trkpt lat="56.885181896928" lon="14.751331290976">
        <ele>167.6</ele>
        <time>2020-02-23T07:41:05Z</time>
      </trkpt>
      <trkpt lat="56.885202432583" lon="14.751227355416">
        <ele>167.4</ele>
        <time>2020-02-23T07:41:07Z</time>
      </trkpt>
      <trkpt lat="56.885293124741" lon="14.750906999198">
        <ele>168.2</ele>
        <time>2020-02-23T07:41:14Z</time>
      </trkpt>
      <trkpt lat="56.885317264613" lon="14.750815720307">
        <ele>168.6</ele>
        <time>2020-02-23T07:41:16Z</time>
      </trkpt>
      <trkpt lat="56.885263452815" lon="14.750506595835">
        <ele>168.2</ele>
        <time>2020-02-23T07:41:23Z</time>
      </trkpt>
      <trkpt lat="56.885132359899" lon="14.750247930401">
        <ele>169.2</ele>
        <time>2020-02-23T07:41:30Z</time>
      </trkpt>
      <trkpt lat="56.884996656938" lon="14.750028659897">
        <ele>169.4</ele>
        <time>2020-02-23T07:41:37Z</time>
      </trkpt>
      <trkpt lat="56.884940833484" lon="14.749947774562">
        <ele>170</ele>
        <time>2020-02-23T07:41:40Z</time>
      </trkpt>
      <trkpt lat="56.884785935972" lon="14.749771587024">
        <ele>171</ele>
        <time>2020-02-23T07:41:48Z</time>
      </trkpt>
      <trkpt lat="56.884730028699" lon="14.749688606214">
        <ele>171</ele>
        <time>2020-02-23T07:41:51Z</time>
      </trkpt>
      <trkpt lat="56.884566833106" lon="14.749492385935">
        <ele>172.2</ele>
        <time>2020-02-23T07:41:59Z</time>
      </trkpt>
      <trkpt lat="56.884398105459" lon="14.749375626068">
        <ele>172</ele>
        <time>2020-02-23T07:42:06Z</time>
      </trkpt>
      <trkpt lat="56.884300288686" lon="14.749313097094">
        <ele>173.4</ele>
        <time>2020-02-23T07:42:10Z</time>
      </trkpt>
      <trkpt lat="56.884128040641" lon="14.749168257862">
        <ele>174.2</ele>
        <time>2020-02-23T07:42:18Z</time>
      </trkpt>
      <trkpt lat="56.884089400082" lon="14.749131126045">
        <ele>174.4</ele>
        <time>2020-02-23T07:42:20Z</time>
      </trkpt>
      <trkpt lat="56.88390265135" lon="14.748996680369">
        <ele>175.6</ele>
        <time>2020-02-23T07:42:28Z</time>
      </trkpt>
      <trkpt lat="56.883705509062" lon="14.748906658763">
        <ele>175.8</ele>
        <time>2020-02-23T07:42:35Z</time>
      </trkpt>
      <trkpt lat="56.883516329579" lon="14.748769614698">
        <ele>176</ele>
        <time>2020-02-23T07:42:43Z</time>
      </trkpt>
      <trkpt lat="56.883335364358" lon="14.748646819863">
        <ele>175.8</ele>
        <time>2020-02-23T07:42:50Z</time>
      </trkpt>
      <trkpt lat="56.883142161563" lon="14.748541124104">
        <ele>175.4</ele>
        <time>2020-02-23T07:42:57Z</time>
      </trkpt>
      <trkpt lat="56.882952395347" lon="14.748415814699">
        <ele>174.6</ele>
        <time>2020-02-23T07:43:04Z</time>
      </trkpt>
      <trkpt lat="56.882898918825" lon="14.748377593235">
        <ele>174.4</ele>
        <time>2020-02-23T07:43:06Z</time>
      </trkpt>
      <trkpt lat="56.882725916409" lon="14.748285559973">
        <ele>173.6</ele>
        <time>2020-02-23T07:43:12Z</time>
      </trkpt>
      <trkpt lat="56.882546208473" lon="14.748157065446">
        <ele>174.6</ele>
        <time>2020-02-23T07:43:19Z</time>
      </trkpt>
      <trkpt lat="56.88235283804" lon="14.748038964475">
        <ele>173.4</ele>
        <time>2020-02-23T07:43:26Z</time>
      </trkpt>
      <trkpt lat="56.882174974122" lon="14.747922539884">
        <ele>173.2</ele>
        <time>2020-02-23T07:43:33Z</time>
      </trkpt>
      <trkpt lat="56.88199157815" lon="14.747797481936">
        <ele>172.8</ele>
        <time>2020-02-23T07:43:40Z</time>
      </trkpt>
      <trkpt lat="56.881804997056" lon="14.747682482268">
        <ele>172.4</ele>
        <time>2020-02-23T07:43:47Z</time>
      </trkpt>
      <trkpt lat="56.881632162278" lon="14.747553401008">
        <ele>172.2</ele>
        <time>2020-02-23T07:43:54Z</time>
      </trkpt>
      <trkpt lat="56.881462009708" lon="14.74738391899">
        <ele>172.6</ele>
        <time>2020-02-23T07:44:01Z</time>
      </trkpt>
      <trkpt lat="56.881282385591" lon="14.747218376465">
        <ele>172.6</ele>
        <time>2020-02-23T07:44:09Z</time>
      </trkpt>
      <trkpt lat="56.881108293528" lon="14.747060629107">
        <ele>172.4</ele>
        <time>2020-02-23T07:44:16Z</time>
      </trkpt>
      <trkpt lat="56.880926741574" lon="14.746931212571">
        <ele>173.2</ele>
        <time>2020-02-23T07:44:23Z</time>
      </trkpt>
      <trkpt lat="56.880767485474" lon="14.746766340598">
        <ele>172</ele>
        <time>2020-02-23T07:44:30Z</time>
      </trkpt>
      <trkpt lat="56.880612252686" lon="14.746601217168">
        <ele>171.8</ele>
        <time>2020-02-23T07:44:37Z</time>
      </trkpt>
      <trkpt lat="56.880433718216" lon="14.746457802859">
        <ele>171.8</ele>
        <time>2020-02-23T07:44:44Z</time>
      </trkpt>
      <trkpt lat="56.880244538733" lon="14.746336768223">
        <ele>172</ele>
        <time>2020-02-23T07:44:51Z</time>
      </trkpt>
      <trkpt lat="56.880068602652" lon="14.746241130744">
        <ele>171.6</ele>
        <time>2020-02-23T07:44:58Z</time>
      </trkpt>
      <trkpt lat="56.880025268229" lon="14.746208189877">
        <ele>171.2</ele>
        <time>2020-02-23T07:45:00Z</time>
      </trkpt>
      <trkpt lat="56.879847907225" lon="14.746122023945">
        <ele>171.4</ele>
        <time>2020-02-23T07:45:08Z</time>
      </trkpt>
      <trkpt lat="56.879657973371" lon="14.746075839676">
        <ele>170.8</ele>
        <time>2020-02-23T07:45:16Z</time>
      </trkpt>
      <trkpt lat="56.879491425018" lon="14.746065949034">
        <ele>172.2</ele>
        <time>2020-02-23T07:45:22Z</time>
      </trkpt>
      <trkpt lat="56.879395368444" lon="14.746049017596">
        <ele>173.4</ele>
        <time>2020-02-23T07:45:26Z</time>
      </trkpt>
      <trkpt lat="56.87919118536" lon="14.746093357847">
        <ele>172.6</ele>
        <time>2020-02-23T07:45:34Z</time>
      </trkpt>
      <trkpt lat="56.87911742464" lon="14.746126298714">
        <ele>172.2</ele>
        <time>2020-02-23T07:45:37Z</time>
      </trkpt>
      <trkpt lat="56.878904189104" lon="14.74616183797">
        <ele>172.6</ele>
        <time>2020-02-23T07:45:44Z</time>
      </trkpt>
      <trkpt lat="56.878706460083" lon="14.746125125248">
        <ele>172.4</ele>
        <time>2020-02-23T07:45:50Z</time>
      </trkpt>
      <trkpt lat="56.878515017487" lon="14.746020938231">
        <ele>172</ele>
        <time>2020-02-23T07:45:57Z</time>
      </trkpt>
      <trkpt lat="56.878334052266" lon="14.746123448868">
        <ele>172</ele>
        <time>2020-02-23T07:46:04Z</time>
      </trkpt>
      <trkpt lat="56.878245958497" lon="14.746229060808">
        <ele>171.2</ele>
        <time>2020-02-23T07:46:08Z</time>
      </trkpt>
      <trkpt lat="56.878062227249" lon="14.746290164859">
        <ele>171.2</ele>
        <time>2020-02-23T07:46:15Z</time>
      </trkpt>
      <trkpt lat="56.87799592642" lon="14.746319669147">
        <ele>170.8</ele>
        <time>2020-02-23T07:46:18Z</time>
      </trkpt>
      <trkpt lat="56.877957621137" lon="14.746659639011">
        <ele>170.2</ele>
        <time>2020-02-23T07:46:25Z</time>
      </trkpt>
      <trkpt lat="56.877957202042" lon="14.746850075779">
        <ele>170</ele>
        <time>2020-02-23T07:46:29Z</time>
      </trkpt>
      <trkpt lat="56.877956866766" lon="14.747180155001">
        <ele>170</ele>
        <time>2020-02-23T07:46:37Z</time>
      </trkpt>
      <trkpt lat="56.877972540919" lon="14.747510820956">
        <ele>169.8</ele>
        <time>2020-02-23T07:46:44Z</time>
      </trkpt>
      <trkpt lat="56.877962231182" lon="14.747868057534">
        <ele>169.4</ele>
        <time>2020-02-23T07:46:51Z</time>
      </trkpt>
      <trkpt lat="56.87795234054" lon="14.748209117045">
        <ele>169.6</ele>
        <time>2020-02-23T07:46:57Z</time>
      </trkpt>
      <trkpt lat="56.877969020521" lon="14.748405756419">
        <ele>169.4</ele>
        <time>2020-02-23T07:47:01Z</time>
      </trkpt>
      <trkpt lat="56.877941946984" lon="14.748438948743">
        <ele>169.4</ele>
        <time>2020-02-23T07:47:05Z</time>
      </trkpt>
      <trkpt lat="56.877789899318" lon="14.748236106763">
        <ele>169.2</ele>
        <time>2020-02-23T07:47:13Z</time>
      </trkpt>
      <trkpt lat="56.877603066767" lon="14.748090848436">
        <ele>170</ele>
        <time>2020-02-23T07:47:21Z</time>
      </trkpt>
      <trkpt lat="56.877462502304" lon="14.748034689706">
        <ele>169</ele>
        <time>2020-02-23T07:47:26Z</time>
      </trkpt>
      <trkpt lat="56.877382203702" lon="14.74798238665">
        <ele>168.8</ele>
        <time>2020-02-23T07:47:29Z</time>
      </trkpt>
      <trkpt lat="56.877313304484" lon="14.747653061799">
        <ele>168.2</ele>
        <time>2020-02-23T07:47:36Z</time>
      </trkpt>
      <trkpt lat="56.87728430311" lon="14.747521298331">
        <ele>167.8</ele>
        <time>2020-02-23T07:47:39Z</time>
      </trkpt>
      <trkpt lat="56.877141894629" lon="14.747341758033">
        <ele>167.2</ele>
        <time>2020-02-23T07:47:46Z</time>
      </trkpt>
      <trkpt lat="56.876946596359" lon="14.747370675588">
        <ele>168</ele>
        <time>2020-02-23T07:47:54Z</time>
      </trkpt>
      <trkpt lat="56.876762613654" lon="14.747426247585">
        <ele>167.2</ele>
        <time>2020-02-23T07:48:01Z</time>
      </trkpt>
      <trkpt lat="56.876575026732" lon="14.747435467675">
        <ele>168</ele>
        <time>2020-02-23T07:48:09Z</time>
      </trkpt>
      <trkpt lat="56.876376040426" lon="14.747490872034">
        <ele>167.8</ele>
        <time>2020-02-23T07:48:17Z</time>
      </trkpt>
      <trkpt lat="56.87618459783" lon="14.747531105154">
        <ele>167.8</ele>
        <time>2020-02-23T07:48:24Z</time>
      </trkpt>
      <trkpt lat="56.875997346184" lon="14.747603440951">
        <ele>167.4</ele>
        <time>2020-02-23T07:48:30Z</time>
      </trkpt>
      <trkpt lat="56.875825433415" lon="14.747753141685">
        <ele>168</ele>
        <time>2020-02-23T07:48:37Z</time>
      </trkpt>
      <trkpt lat="56.87566240546" lon="14.747916924011">
        <ele>168.6</ele>
        <time>2020-02-23T07:48:42Z</time>
      </trkpt>
      <trkpt lat="56.875563582859" lon="14.747941399159">
        <ele>169</ele>
        <time>2020-02-23T07:48:46Z</time>
      </trkpt>
      <trkpt lat="56.875470292312" lon="14.74764543427">
        <ele>169</ele>
        <time>2020-02-23T07:48:53Z</time>
      </trkpt>
      <trkpt lat="56.87543944692" lon="14.747488525102">
        <ele>167.8</ele>
        <time>2020-02-23T07:48:56Z</time>
      </trkpt>
      <trkpt lat="56.875288069806" lon="14.747286605131">
        <ele>168.4</ele>
        <time>2020-02-23T07:49:03Z</time>
      </trkpt>
      <trkpt lat="56.87511758196" lon="14.747126175565">
        <ele>168.2</ele>
        <time>2020-02-23T07:49:10Z</time>
      </trkpt>
      <trkpt lat="56.874940807689" lon="14.747010337707">
        <ele>167.2</ele>
        <time>2020-02-23T07:49:16Z</time>
      </trkpt>
      <trkpt lat="56.874798985941" lon="14.746802131311">
        <ele>168</ele>
        <time>2020-02-23T07:49:22Z</time>
      </trkpt>
      <trkpt lat="56.874645429533" lon="14.746579172771">
        <ele>168.4</ele>
        <time>2020-02-23T07:49:29Z</time>
      </trkpt>
      <trkpt lat="56.874572926098" lon="14.746482780921">
        <ele>169</ele>
        <time>2020-02-23T07:49:32Z</time>
      </trkpt>
      <trkpt lat="56.874424734106" lon="14.746294188171">
        <ele>168</ele>
        <time>2020-02-23T07:49:38Z</time>
      </trkpt>
      <trkpt lat="56.874255252088" lon="14.746104338136">
        <ele>168</ele>
        <time>2020-02-23T07:49:45Z</time>
      </trkpt>
      <trkpt lat="56.874108485019" lon="14.7458911026">
        <ele>168.6</ele>
        <time>2020-02-23T07:49:52Z</time>
      </trkpt>
      <trkpt lat="56.873960293027" lon="14.745671832096">
        <ele>167.6</ele>
        <time>2020-02-23T07:49:59Z</time>
      </trkpt>
      <trkpt lat="56.873918215889" lon="14.74561533809">
        <ele>166.8</ele>
        <time>2020-02-23T07:50:01Z</time>
      </trkpt>
      <trkpt lat="56.873735490469" lon="14.74547787493">
        <ele>168</ele>
        <time>2020-02-23T07:50:09Z</time>
      </trkpt>
      <trkpt lat="56.873714535719" lon="14.745477958749">
        <ele>168.8</ele>
        <time>2020-02-23T07:50:10Z</time>
      </trkpt>
      <trkpt lat="56.873682852137" lon="14.745499332594">
        <ele>169.2</ele>
        <time>2020-02-23T07:50:11Z</time>
      </trkpt>
      <trkpt lat="56.873617138041" lon="14.745571416934">
        <ele>170.2</ele>
        <time>2020-02-23T07:50:14Z</time>
      </trkpt>
      <trkpt lat="56.87345880395" lon="14.74573603745">
        <ele>170.2</ele>
        <time>2020-02-23T07:50:21Z</time>
      </trkpt>
      <trkpt lat="56.873338439866" lon="14.745880876682">
        <ele>169</ele>
        <time>2020-02-23T07:50:27Z</time>
      </trkpt>
      <trkpt lat="56.873154792437" lon="14.745989422287">
        <ele>169</ele>
        <time>2020-02-23T07:50:34Z</time>
      </trkpt>
      <trkpt lat="56.872955806131" lon="14.746113558226">
        <ele>169.4</ele>
        <time>2020-02-23T07:50:42Z</time>
      </trkpt>
      <trkpt lat="56.8728092067" lon="14.746324949744">
        <ele>168.8</ele>
        <time>2020-02-23T07:50:48Z</time>
      </trkpt>
      <trkpt lat="56.872648525677" lon="14.74652058329">
        <ele>168.4</ele>
        <time>2020-02-23T07:50:55Z</time>
      </trkpt>
      <trkpt lat="56.872486755007" lon="14.746684533254">
        <ele>168.6</ele>
        <time>2020-02-23T07:51:02Z</time>
      </trkpt>
      <trkpt lat="56.872349627123" lon="14.746828450477">
        <ele>168</ele>
        <time>2020-02-23T07:51:08Z</time>
      </trkpt>
      <trkpt lat="56.872181150933" lon="14.746969936949">
        <ele>168.2</ele>
        <time>2020-02-23T07:51:15Z</time>
      </trkpt>
      <trkpt lat="56.872017787702" lon="14.747112932163">
        <ele>168.8</ele>
        <time>2020-02-23T07:51:22Z</time>
      </trkpt>
      <trkpt lat="56.871810000401" lon="14.747138496958">
        <ele>168</ele>
        <time>2020-02-23T07:51:29Z</time>
      </trkpt>
      <trkpt lat="56.871607828973" lon="14.747086026264">
        <ele>168</ele>
        <time>2020-02-23T07:51:35Z</time>
      </trkpt>
      <trkpt lat="56.871434072186" lon="14.746982090704">
        <ele>167.6</ele>
        <time>2020-02-23T07:51:41Z</time>
      </trkpt>
      <trkpt lat="56.871261572684" lon="14.746848231761">
        <ele>168.4</ele>
        <time>2020-02-23T07:51:48Z</time>
      </trkpt>
      <trkpt lat="56.87107247702" lon="14.746759048345">
        <ele>168.6</ele>
        <time>2020-02-23T07:51:56Z</time>
      </trkpt>
      <trkpt lat="56.870888410496" lon="14.746717055026">
        <ele>169</ele>
        <time>2020-02-23T07:52:04Z</time>
      </trkpt>
      <trkpt lat="56.870697554633" lon="14.746684449435">
        <ele>169.2</ele>
        <time>2020-02-23T07:52:11Z</time>
      </trkpt>
      <trkpt lat="56.870510219168" lon="14.746738261233">
        <ele>169</ele>
        <time>2020-02-23T07:52:18Z</time>
      </trkpt>
      <trkpt lat="56.870319530943" lon="14.746874634746">
        <ele>169.2</ele>
        <time>2020-02-23T07:52:25Z</time>
      </trkpt>
      <trkpt lat="56.870120796094" lon="14.746893661659">
        <ele>168.6</ele>
        <time>2020-02-23T07:52:32Z</time>
      </trkpt>
      <trkpt lat="56.869942345443" lon="14.746948479285">
        <ele>169</ele>
        <time>2020-02-23T07:52:38Z</time>
      </trkpt>
      <trkpt lat="56.869750232295" lon="14.747026095679">
        <ele>169.4</ele>
        <time>2020-02-23T07:52:45Z</time>
      </trkpt>
      <trkpt lat="56.869569099436" lon="14.747134808922">
        <ele>169.8</ele>
        <time>2020-02-23T07:52:52Z</time>
      </trkpt>
      <trkpt lat="56.86945225575" lon="14.74715257855">
        <ele>170.2</ele>
        <time>2020-02-23T07:52:56Z</time>
      </trkpt>
      <trkpt lat="56.869271541986" lon="14.74714587303">
        <ele>169</ele>
        <time>2020-02-23T07:53:03Z</time>
      </trkpt>
      <trkpt lat="56.869069454377" lon="14.747184513589">
        <ele>169.6</ele>
        <time>2020-02-23T07:53:11Z</time>
      </trkpt>
      <trkpt lat="56.868883460016" lon="14.747190213281">
        <ele>169.2</ele>
        <time>2020-02-23T07:53:17Z</time>
      </trkpt>
      <trkpt lat="56.86867693" lon="14.747216616266">
        <ele>169.4</ele>
        <time>2020-02-23T07:53:23Z</time>
      </trkpt>
      <trkpt lat="56.86847744078" lon="14.747267159123">
        <ele>169.2</ele>
        <time>2020-02-23T07:53:29Z</time>
      </trkpt>
      <trkpt lat="56.868294296265" lon="14.747290209348">
        <ele>168.8</ele>
        <time>2020-02-23T07:53:36Z</time>
      </trkpt>
      <trkpt lat="56.86809522614" lon="14.747275205747">
        <ele>168.6</ele>
        <time>2020-02-23T07:53:44Z</time>
      </trkpt>
      <trkpt lat="56.867891965065" lon="14.747205552158">
        <ele>168.8</ele>
        <time>2020-02-23T07:53:51Z</time>
      </trkpt>
      <trkpt lat="56.867698510813" lon="14.747085690988">
        <ele>168</ele>
        <time>2020-02-23T07:53:57Z</time>
      </trkpt>
      <trkpt lat="56.867521736542" lon="14.746921657205">
        <ele>168</ele>
        <time>2020-02-23T07:54:04Z</time>
      </trkpt>
      <trkpt lat="56.867397600603" lon="14.746891733822">
        <ele>168.2</ele>
        <time>2020-02-23T07:54:10Z</time>
      </trkpt>
      <trkpt lat="56.86719165732" lon="14.746936996082">
        <ele>167.8</ele>
        <time>2020-02-23T07:54:18Z</time>
      </trkpt>
      <trkpt lat="56.867008261348" lon="14.74685250653">
        <ele>167.8</ele>
        <time>2020-02-23T07:54:25Z</time>
      </trkpt>
      <trkpt lat="56.866904744883" lon="14.74682316988">
        <ele>168.6</ele>
        <time>2020-02-23T07:54:30Z</time>
      </trkpt>
      <trkpt lat="56.866732748295" lon="14.746934397693">
        <ele>168.6</ele>
        <time>2020-02-23T07:54:36Z</time>
      </trkpt>
      <trkpt lat="56.866690754976" lon="14.746960884497">
        <ele>169</ele>
        <time>2020-02-23T07:54:38Z</time>
      </trkpt>
      <trkpt lat="56.866518674569" lon="14.747074459242">
        <ele>169</ele>
        <time>2020-02-23T07:54:45Z</time>
      </trkpt>
      <trkpt lat="56.866344833963" lon="14.747174036214">
        <ele>169</ele>
        <time>2020-02-23T07:54:52Z</time>
      </trkpt>
      <trkpt lat="56.866154061919" lon="14.747298758886">
        <ele>169</ele>
        <time>2020-02-23T07:55:00Z</time>
      </trkpt>
      <trkpt lat="56.865971504137" lon="14.747417111314">
        <ele>169</ele>
        <time>2020-02-23T07:55:06Z</time>
      </trkpt>
      <trkpt lat="56.865793724038" lon="14.747474611148">
        <ele>168.4</ele>
        <time>2020-02-23T07:55:12Z</time>
      </trkpt>
      <trkpt lat="56.865598593406" lon="14.747497829011">
        <ele>169</ele>
        <time>2020-02-23T07:55:19Z</time>
      </trkpt>
      <trkpt lat="56.86539876891" lon="14.747600591105">
        <ele>169.2</ele>
        <time>2020-02-23T07:55:27Z</time>
      </trkpt>
      <trkpt lat="56.865211265807" lon="14.747653983808">
        <ele>168.8</ele>
        <time>2020-02-23T07:55:34Z</time>
      </trkpt>
      <trkpt lat="56.865195256378" lon="14.747659851138">
        <ele>169</ele>
        <time>2020-02-23T07:55:35Z</time>
      </trkpt>
      <trkpt lat="56.865001802126" lon="14.747729840003">
        <ele>168</ele>
        <time>2020-02-23T07:55:43Z</time>
      </trkpt>
      <trkpt lat="56.864817316507" lon="14.74782648331">
        <ele>168.4</ele>
        <time>2020-02-23T07:55:51Z</time>
      </trkpt>
      <trkpt lat="56.864625622454" lon="14.74790443498">
        <ele>168.4</ele>
        <time>2020-02-23T07:55:58Z</time>
      </trkpt>
      <trkpt lat="56.864409034158" lon="14.747860346186">
        <ele>168</ele>
        <time>2020-02-23T07:56:06Z</time>
      </trkpt>
      <trkpt lat="56.86420267178" lon="14.747845510223">
        <ele>168.6</ele>
        <time>2020-02-23T07:56:13Z</time>
      </trkpt>
      <trkpt lat="56.86412220554" lon="14.747868644267">
        <ele>169</ele>
        <time>2020-02-23T07:56:16Z</time>
      </trkpt>
      <trkpt lat="56.863912322764" lon="14.747916421097">
        <ele>168.4</ele>
        <time>2020-02-23T07:56:23Z</time>
      </trkpt>
      <trkpt lat="56.863724819661" lon="14.747978028062">
        <ele>168.6</ele>
        <time>2020-02-23T07:56:30Z</time>
      </trkpt>
      <trkpt lat="56.86353547254" lon="14.748069977505">
        <ele>168.4</ele>
        <time>2020-02-23T07:56:39Z</time>
      </trkpt>
      <trkpt lat="56.863340761003" lon="14.748150611383">
        <ele>168</ele>
        <time>2020-02-23T07:56:47Z</time>
      </trkpt>
      <trkpt lat="56.863163819094" lon="14.748287236353">
        <ele>168.2</ele>
        <time>2020-02-23T07:56:53Z</time>
      </trkpt>
      <trkpt lat="56.862975477801" lon="14.748410282645">
        <ele>168</ele>
        <time>2020-02-23T07:57:01Z</time>
      </trkpt>
      <trkpt lat="56.862768863966" lon="14.74856325232">
        <ele>167.6</ele>
        <time>2020-02-23T07:57:07Z</time>
      </trkpt>
      <trkpt lat="56.862597454111" lon="14.748663751301">
        <ele>167.8</ele>
        <time>2020-02-23T07:57:13Z</time>
      </trkpt>
      <trkpt lat="56.862573481877" lon="14.748660901455">
        <ele>167.8</ele>
        <time>2020-02-23T07:57:14Z</time>
      </trkpt>
      <trkpt lat="56.862375082304" lon="14.748631900081">
        <ele>168.2</ele>
        <time>2020-02-23T07:57:21Z</time>
      </trkpt>
      <trkpt lat="56.862181628052" lon="14.748722759877">
        <ele>168</ele>
        <time>2020-02-23T07:57:28Z</time>
      </trkpt>
      <trkpt lat="56.861983815212" lon="14.748745810102">
        <ele>168.4</ele>
        <time>2020-02-23T07:57:35Z</time>
      </trkpt>
      <trkpt lat="56.861788852218" lon="14.748698033272">
        <ele>168.6</ele>
        <time>2020-02-23T07:57:42Z</time>
      </trkpt>
      <trkpt lat="56.861696902775" lon="14.748696021616">
        <ele>168.4</ele>
        <time>2020-02-23T07:57:45Z</time>
      </trkpt>
      <trkpt lat="56.861509148215" lon="14.748725442085">
        <ele>168.4</ele>
        <time>2020-02-23T07:57:53Z</time>
      </trkpt>
      <trkpt lat="56.861330278469" lon="14.748640952533">
        <ele>168.2</ele>
        <time>2020-02-23T07:57:59Z</time>
      </trkpt>
      <trkpt lat="56.861216955181" lon="14.748606083829">
        <ele>169</ele>
        <time>2020-02-23T07:58:02Z</time>
      </trkpt>
      <trkpt lat="56.861029200621" lon="14.748535172955">
        <ele>168.2</ele>
        <time>2020-02-23T07:58:09Z</time>
      </trkpt>
      <trkpt lat="56.860979579773" lon="14.748550595651">
        <ele>168</ele>
        <time>2020-02-23T07:58:11Z</time>
      </trkpt>
      <trkpt lat="56.86085913187" lon="14.748598204843">
        <ele>167.6</ele>
        <time>2020-02-23T07:58:17Z</time>
      </trkpt>
      <trkpt lat="56.860652518035" lon="14.748592505151">
        <ele>167.4</ele>
        <time>2020-02-23T07:58:25Z</time>
      </trkpt>
      <trkpt lat="56.86045009515" lon="14.748628044407">
        <ele>167.6</ele>
        <time>2020-02-23T07:58:32Z</time>
      </trkpt>
      <trkpt lat="56.860258065821" lon="14.748570460754">
        <ele>168.2</ele>
        <time>2020-02-23T07:58:38Z</time>
      </trkpt>
      <trkpt lat="56.860145664542" lon="14.748282207213">
        <ele>167.8</ele>
        <time>2020-02-23T07:58:44Z</time>
      </trkpt>
      <trkpt lat="56.860095456961" lon="14.747961934814">
        <ele>168.6</ele>
        <time>2020-02-23T07:58:50Z</time>
      </trkpt>
      <trkpt lat="56.860044495009" lon="14.747636717094">
        <ele>169</ele>
        <time>2020-02-23T07:58:57Z</time>
      </trkpt>
      <trkpt lat="56.86003938205" lon="14.747591287196">
        <ele>169</ele>
        <time>2020-02-23T07:58:58Z</time>
      </trkpt>
      <trkpt lat="56.85999076703" lon="14.74725316135">
        <ele>169.2</ele>
        <time>2020-02-23T07:59:05Z</time>
      </trkpt>
      <trkpt lat="56.859940643268" lon="14.746907910889">
        <ele>169.8</ele>
        <time>2020-02-23T07:59:12Z</time>
      </trkpt>
      <trkpt lat="56.859902673261" lon="14.746540783669">
        <ele>168.8</ele>
        <time>2020-02-23T07:59:19Z</time>
      </trkpt>
      <trkpt lat="56.859855734621" lon="14.746216655596">
        <ele>169.2</ele>
        <time>2020-02-23T07:59:26Z</time>
      </trkpt>
      <trkpt lat="56.859810220904" lon="14.745878948845">
        <ele>170</ele>
        <time>2020-02-23T07:59:33Z</time>
      </trkpt>
      <trkpt lat="56.859728497379" lon="14.74556756126">
        <ele>170.2</ele>
        <time>2020-02-23T07:59:41Z</time>
      </trkpt>
      <trkpt lat="56.859638056678" lon="14.745583151594">
        <ele>171.2</ele>
        <time>2020-02-23T07:59:44Z</time>
      </trkpt>
      <trkpt lat="56.859511992902" lon="14.745642411627">
        <ele>172.2</ele>
        <time>2020-02-23T07:59:48Z</time>
      </trkpt>
      <trkpt lat="56.859320634125" lon="14.745732265595">
        <ele>171.6</ele>
        <time>2020-02-23T07:59:54Z</time>
      </trkpt>
      <trkpt lat="56.859292470941" lon="14.745743748798">
        <ele>171.2</ele>
        <time>2020-02-23T07:59:55Z</time>
      </trkpt>
      <trkpt lat="56.859089293685" lon="14.745803176469">
        <ele>170.4</ele>
        <time>2020-02-23T08:00:02Z</time>
      </trkpt>
      <trkpt lat="56.858895755614" lon="14.74586428052">
        <ele>170.8</ele>
        <time>2020-02-23T08:00:09Z</time>
      </trkpt>
      <trkpt lat="56.858715125669" lon="14.745936281041">
        <ele>170</ele>
        <time>2020-02-23T08:00:16Z</time>
      </trkpt>
      <trkpt lat="56.858520162675" lon="14.74600258187">
        <ele>171.2</ele>
        <time>2020-02-23T08:00:24Z</time>
      </trkpt>
      <trkpt lat="56.858443216833" lon="14.746005599354">
        <ele>172.2</ele>
        <time>2020-02-23T08:00:27Z</time>
      </trkpt>
      <trkpt lat="56.858245487812" lon="14.746058405324">
        <ele>172</ele>
        <time>2020-02-23T08:00:34Z</time>
      </trkpt>
      <trkpt lat="56.858046669144" lon="14.746107439439">
        <ele>172.2</ele>
        <time>2020-02-23T08:00:42Z</time>
      </trkpt>
      <trkpt lat="56.857856567652" lon="14.746183295634">
        <ele>172.2</ele>
        <time>2020-02-23T08:00:49Z</time>
      </trkpt>
      <trkpt lat="56.857662191391" lon="14.746251859576">
        <ele>172.6</ele>
        <time>2020-02-23T08:00:56Z</time>
      </trkpt>
      <trkpt lat="56.8574619478" lon="14.746309107953">
        <ele>172.8</ele>
        <time>2020-02-23T08:01:03Z</time>
      </trkpt>
      <trkpt lat="56.857271930127" lon="14.746317825129">
        <ele>171.8</ele>
        <time>2020-02-23T08:01:11Z</time>
      </trkpt>
      <trkpt lat="56.857080319893" lon="14.746336013852">
        <ele>173</ele>
        <time>2020-02-23T08:01:20Z</time>
      </trkpt>
      <trkpt lat="56.856938498145" lon="14.746363590303">
        <ele>171</ele>
        <time>2020-02-23T08:01:26Z</time>
      </trkpt>
      <trkpt lat="56.85673942802" lon="14.746421425413">
        <ele>171.8</ele>
        <time>2020-02-23T08:01:34Z</time>
      </trkpt>
      <trkpt lat="56.856714617596" lon="14.746434082082">
        <ele>172.2</ele>
        <time>2020-02-23T08:01:35Z</time>
      </trkpt>
      <trkpt lat="56.85651060215" lon="14.746506082603">
        <ele>172.8</ele>
        <time>2020-02-23T08:01:41Z</time>
      </trkpt>
      <trkpt lat="56.856362493977" lon="14.746574814183">
        <ele>173.2</ele>
        <time>2020-02-23T08:01:46Z</time>
      </trkpt>
      <trkpt lat="56.856282195375" lon="14.746615550217">
        <ele>172</ele>
        <time>2020-02-23T08:01:49Z</time>
      </trkpt>
      <trkpt lat="56.856100308145" lon="14.746677073363">
        <ele>171.2</ele>
        <time>2020-02-23T08:01:56Z</time>
      </trkpt>
      <trkpt lat="56.855911044843" lon="14.746723173813">
        <ele>171.6</ele>
        <time>2020-02-23T08:02:04Z</time>
      </trkpt>
      <trkpt lat="56.855736030771" lon="14.746808836831">
        <ele>172</ele>
        <time>2020-02-23T08:02:10Z</time>
      </trkpt>
      <trkpt lat="56.85555003641" lon="14.746899528989">
        <ele>172.4</ele>
        <time>2020-02-23T08:02:16Z</time>
      </trkpt>
      <trkpt lat="56.85536060547" lon="14.746973541166">
        <ele>172.2</ele>
        <time>2020-02-23T08:02:22Z</time>
      </trkpt>
      <trkpt lat="56.855160445698" lon="14.747014444838">
        <ele>172</ele>
        <time>2020-02-23T08:02:29Z</time>
      </trkpt>
      <trkpt lat="56.854958777184" lon="14.747073704871">
        <ele>171.6</ele>
        <time>2020-02-23T08:02:37Z</time>
      </trkpt>
      <trkpt lat="56.854771022624" lon="14.747124750642">
        <ele>171.6</ele>
        <time>2020-02-23T08:02:44Z</time>
      </trkpt>
      <trkpt lat="56.854578490381" lon="14.747189794186">
        <ele>172</ele>
        <time>2020-02-23T08:02:51Z</time>
      </trkpt>
      <trkpt lat="56.854390065269" lon="14.747183423942">
        <ele>172.8</ele>
        <time>2020-02-23T08:02:59Z</time>
      </trkpt>
      <trkpt lat="56.854206250202" lon="14.747219717569">
        <ele>172.6</ele>
        <time>2020-02-23T08:03:07Z</time>
      </trkpt>
      <trkpt lat="56.854076163114" lon="14.74725232316">
        <ele>171</ele>
        <time>2020-02-23T08:03:13Z</time>
      </trkpt>
      <trkpt lat="56.853869214003" lon="14.747317869618">
        <ele>171.4</ele>
        <time>2020-02-23T08:03:21Z</time>
      </trkpt>
      <trkpt lat="56.853673496638" lon="14.747379979497">
        <ele>171.2</ele>
        <time>2020-02-23T08:03:28Z</time>
      </trkpt>
      <trkpt lat="56.853485742078" lon="14.747440580634">
        <ele>171.2</ele>
        <time>2020-02-23T08:03:34Z</time>
      </trkpt>
      <trkpt lat="56.853285498487" lon="14.747554742112">
        <ele>170.8</ele>
        <time>2020-02-23T08:03:40Z</time>
      </trkpt>
      <trkpt lat="56.85322322097" lon="14.747839475255">
        <ele>171</ele>
        <time>2020-02-23T08:03:47Z</time>
      </trkpt>
      <trkpt lat="56.853276948949" lon="14.748165531165">
        <ele>170.4</ele>
        <time>2020-02-23T08:03:54Z</time>
      </trkpt>
      <trkpt lat="56.853295137672" lon="14.748526036684">
        <ele>171</ele>
        <time>2020-02-23T08:04:02Z</time>
      </trkpt>
      <trkpt lat="56.853319026087" lon="14.748884362909">
        <ele>171</ele>
        <time>2020-02-23T08:04:09Z</time>
      </trkpt>
      <trkpt lat="56.853345009977" lon="14.749243108229">
        <ele>171</ele>
        <time>2020-02-23T08:04:17Z</time>
      </trkpt>
      <trkpt lat="56.853373005523" lon="14.749568409768">
        <ele>172</ele>
        <time>2020-02-23T08:04:23Z</time>
      </trkpt>
      <trkpt lat="56.853385494554" lon="14.74968558873">
        <ele>172</ele>
        <time>2020-02-23T08:04:25Z</time>
      </trkpt>
      <trkpt lat="56.853364623623" lon="14.750030671553">
        <ele>171.4</ele>
        <time>2020-02-23T08:04:32Z</time>
      </trkpt>
      <trkpt lat="56.853332604765" lon="14.750172996215">
        <ele>171</ele>
        <time>2020-02-23T08:04:35Z</time>
      </trkpt>
      <trkpt lat="56.853215090527" lon="14.750461165937">
        <ele>170.4</ele>
        <time>2020-02-23T08:04:42Z</time>
      </trkpt>
      <trkpt lat="56.853145436938" lon="14.750604999341">
        <ele>170</ele>
        <time>2020-02-23T08:04:46Z</time>
      </trkpt>
      <trkpt lat="56.853060025377" lon="14.750862156033">
        <ele>171</ele>
        <time>2020-02-23T08:04:52Z</time>
      </trkpt>
      <trkpt lat="56.852980900241" lon="14.751118223078">
        <ele>172</ele>
        <time>2020-02-23T08:04:58Z</time>
      </trkpt>
      <trkpt lat="56.852870929713" lon="14.751404464963">
        <ele>172.2</ele>
        <time>2020-02-23T08:05:05Z</time>
      </trkpt>
      <trkpt lat="56.852746709955" lon="14.75166874627">
        <ele>171</ele>
        <time>2020-02-23T08:05:12Z</time>
      </trkpt>
      <trkpt lat="56.852717876219" lon="14.751710991046">
        <ele>171</ele>
        <time>2020-02-23T08:05:13Z</time>
      </trkpt>
      <trkpt lat="56.852587789131" lon="14.751988431936">
        <ele>171</ele>
        <time>2020-02-23T08:05:20Z</time>
      </trkpt>
      <trkpt lat="56.852468095599" lon="14.752289677422">
        <ele>170.8</ele>
        <time>2020-02-23T08:05:27Z</time>
      </trkpt>
      <trkpt lat="56.852358963261" lon="14.752578769153">
        <ele>171</ele>
        <time>2020-02-23T08:05:34Z</time>
      </trkpt>
      <trkpt lat="56.852220410454" lon="14.752834081827">
        <ele>171.2</ele>
        <time>2020-02-23T08:05:42Z</time>
      </trkpt>
      <trkpt lat="56.852056963404" lon="14.753011191374">
        <ele>171</ele>
        <time>2020-02-23T08:05:49Z</time>
      </trkpt>
      <trkpt lat="56.851999379751" lon="14.753150917647">
        <ele>171.2</ele>
        <time>2020-02-23T08:05:53Z</time>
      </trkpt>
      <trkpt lat="56.851975239879" lon="14.753484601086">
        <ele>171.8</ele>
        <time>2020-02-23T08:06:03Z</time>
      </trkpt>
      <trkpt lat="56.85211764836" lon="14.753723820512">
        <ele>171.2</ele>
        <time>2020-02-23T08:06:10Z</time>
      </trkpt>
      <trkpt lat="56.85230288835" lon="14.753904282819">
        <ele>170.8</ele>
        <time>2020-02-23T08:06:17Z</time>
      </trkpt>
      <trkpt lat="56.852474214386" lon="14.754048786775">
        <ele>170.8</ele>
        <time>2020-02-23T08:06:24Z</time>
      </trkpt>
      <trkpt lat="56.852620897636" lon="14.754285826907">
        <ele>170.2</ele>
        <time>2020-02-23T08:06:32Z</time>
      </trkpt>
      <trkpt lat="56.852655263426" lon="14.754531751853">
        <ele>170.6</ele>
        <time>2020-02-23T08:06:38Z</time>
      </trkpt>
      <trkpt lat="56.85274461448" lon="14.754799888834">
        <ele>170.6</ele>
        <time>2020-02-23T08:06:46Z</time>
      </trkpt>
      <trkpt lat="56.85283932995" lon="14.75510532527">
        <ele>171</ele>
        <time>2020-02-23T08:06:53Z</time>
      </trkpt>
      <trkpt lat="56.852944690433" lon="14.755350579664">
        <ele>170.4</ele>
        <time>2020-02-23T08:06:59Z</time>
      </trkpt>
      <trkpt lat="56.852982157526" lon="14.755435069216">
        <ele>170.4</ele>
        <time>2020-02-23T08:07:01Z</time>
      </trkpt>
      <trkpt lat="56.85303881917" lon="14.755551912902">
        <ele>169.8</ele>
        <time>2020-02-23T08:07:04Z</time>
      </trkpt>
      <trkpt lat="56.853114675365" lon="14.755728435716">
        <ele>169.8</ele>
        <time>2020-02-23T08:07:08Z</time>
      </trkpt>
      <trkpt lat="56.853173683941" lon="14.756058682576">
        <ele>170.6</ele>
        <time>2020-02-23T08:07:15Z</time>
      </trkpt>
      <trkpt lat="56.853220035848" lon="14.756331764878">
        <ele>170.8</ele>
        <time>2020-02-23T08:07:20Z</time>
      </trkpt>
      <trkpt lat="56.853226657549" lon="14.756675422778">
        <ele>171.2</ele>
        <time>2020-02-23T08:07:27Z</time>
      </trkpt>
      <trkpt lat="56.853194471053" lon="14.757014135357">
        <ele>171.4</ele>
        <time>2020-02-23T08:07:33Z</time>
      </trkpt>
      <trkpt lat="56.853159350892" lon="14.757384447699">
        <ele>171.2</ele>
        <time>2020-02-23T08:07:40Z</time>
      </trkpt>
      <trkpt lat="56.853159267073" lon="14.757747132512">
        <ele>170.8</ele>
        <time>2020-02-23T08:07:47Z</time>
      </trkpt>
      <trkpt lat="56.853132444993" lon="14.758073607517">
        <ele>170.6</ele>
        <time>2020-02-23T08:07:53Z</time>
      </trkpt>
      <trkpt lat="56.853106796379" lon="14.75834073867">
        <ele>169.8</ele>
        <time>2020-02-23T08:07:58Z</time>
      </trkpt>
      <trkpt lat="56.853074609883" lon="14.758673583919">
        <ele>169.2</ele>
        <time>2020-02-23T08:08:05Z</time>
      </trkpt>
      <trkpt lat="56.853040327912" lon="14.759037023103">
        <ele>169.2</ele>
        <time>2020-02-23T08:08:12Z</time>
      </trkpt>
      <trkpt lat="56.853011242719" lon="14.759364755393">
        <ele>169.2</ele>
        <time>2020-02-23T08:08:19Z</time>
      </trkpt>
      <trkpt lat="56.852971009599" lon="14.759713107157">
        <ele>169.2</ele>
        <time>2020-02-23T08:08:26Z</time>
      </trkpt>
      <trkpt lat="56.852914012679" lon="14.760045449492">
        <ele>169.2</ele>
        <time>2020-02-23T08:08:34Z</time>
      </trkpt>
      <trkpt lat="56.852881407088" lon="14.760413331083">
        <ele>169.2</ele>
        <time>2020-02-23T08:08:41Z</time>
      </trkpt>
      <trkpt lat="56.852838910855" lon="14.760768304548">
        <ele>169</ele>
        <time>2020-02-23T08:08:48Z</time>
      </trkpt>
      <trkpt lat="56.852796749898" lon="14.761109866973">
        <ele>169.2</ele>
        <time>2020-02-23T08:08:55Z</time>
      </trkpt>
      <trkpt lat="56.852735981123" lon="14.761442544584">
        <ele>169</ele>
        <time>2020-02-23T08:09:02Z</time>
      </trkpt>
      <trkpt lat="56.852729191784" lon="14.761487136292">
        <ele>168.8</ele>
        <time>2020-02-23T08:09:03Z</time>
      </trkpt>
      <trkpt lat="56.852704884274" lon="14.761824172491">
        <ele>168.8</ele>
        <time>2020-02-23T08:09:10Z</time>
      </trkpt>
      <trkpt lat="56.852629028079" lon="14.762113012765">
        <ele>169</ele>
        <time>2020-02-23T08:09:19Z</time>
      </trkpt>
      <trkpt lat="56.852445045374" lon="14.762113348041">
        <ele>169.2</ele>
        <time>2020-02-23T08:09:28Z</time>
      </trkpt>
      <trkpt lat="56.852258548099" lon="14.762103708856">
        <ele>169.2</ele>
        <time>2020-02-23T08:09:35Z</time>
      </trkpt>
      <trkpt lat="56.852062244001" lon="14.762110665833">
        <ele>169.6</ele>
        <time>2020-02-23T08:09:42Z</time>
      </trkpt>
      <trkpt lat="56.851966355065" lon="14.762108654177">
        <ele>170</ele>
        <time>2020-02-23T08:09:45Z</time>
      </trkpt>
      <trkpt lat="56.851766111474" lon="14.762098176802">
        <ele>170.2</ele>
        <time>2020-02-23T08:09:52Z</time>
      </trkpt>
      <trkpt lat="56.851570897023" lon="14.762050148515">
        <ele>169.8</ele>
        <time>2020-02-23T08:09:59Z</time>
      </trkpt>
      <trkpt lat="56.851377442771" lon="14.76201201087">
        <ele>169.8</ele>
        <time>2020-02-23T08:10:06Z</time>
      </trkpt>
      <trkpt lat="56.851172253859" lon="14.761979489098">
        <ele>169.2</ele>
        <time>2020-02-23T08:10:13Z</time>
      </trkpt>
      <trkpt lat="56.850989109344" lon="14.761955433045">
        <ele>169.6</ele>
        <time>2020-02-23T08:10:20Z</time>
      </trkpt>
      <trkpt lat="56.85080839558" lon="14.76191058988">
        <ele>169.6</ele>
        <time>2020-02-23T08:10:27Z</time>
      </trkpt>
      <trkpt lat="56.850614941328" lon="14.761871781683">
        <ele>170.6</ele>
        <time>2020-02-23T08:10:34Z</time>
      </trkpt>
      <trkpt lat="56.850423163456" lon="14.761782933543">
        <ele>170.6</ele>
        <time>2020-02-23T08:10:41Z</time>
      </trkpt>
      <trkpt lat="56.850256112189" lon="14.761810342356">
        <ele>171</ele>
        <time>2020-02-23T08:10:49Z</time>
      </trkpt>
      <trkpt lat="56.850076320434" lon="14.761815706772">
        <ele>170.8</ele>
        <time>2020-02-23T08:10:57Z</time>
      </trkpt>
      <trkpt lat="56.849871802074" lon="14.761843115585">
        <ele>171</ele>
        <time>2020-02-23T08:11:04Z</time>
      </trkpt>
      <trkpt lat="56.849679521288" lon="14.761807576329">
        <ele>171.4</ele>
        <time>2020-02-23T08:11:12Z</time>
      </trkpt>
      <trkpt lat="56.849494029841" lon="14.761849150553">
        <ele>171.4</ele>
        <time>2020-02-23T08:11:20Z</time>
      </trkpt>
      <trkpt lat="56.84937425249" lon="14.761899609591">
        <ele>172</ele>
        <time>2020-02-23T08:11:26Z</time>
      </trkpt>
      <trkpt lat="56.849184234817" lon="14.761971526293">
        <ele>172.6</ele>
        <time>2020-02-23T08:11:35Z</time>
      </trkpt>
      <trkpt lat="56.849100834912" lon="14.762020141313">
        <ele>173.2</ele>
        <time>2020-02-23T08:11:38Z</time>
      </trkpt>
      <trkpt lat="56.848918444768" lon="14.762076132405">
        <ele>172.8</ele>
        <time>2020-02-23T08:11:45Z</time>
      </trkpt>
      <trkpt lat="56.848726163982" lon="14.762168668581">
        <ele>172.8</ele>
        <time>2020-02-23T08:11:51Z</time>
      </trkpt>
      <trkpt lat="56.848669837614" lon="14.762187779313">
        <ele>172.8</ele>
        <time>2020-02-23T08:11:53Z</time>
      </trkpt>
      <trkpt lat="56.84847738919" lon="14.76220982371">
        <ele>172.6</ele>
        <time>2020-02-23T08:11:59Z</time>
      </trkpt>
      <trkpt lat="56.848295753417" lon="14.762172859531">
        <ele>172.2</ele>
        <time>2020-02-23T08:12:04Z</time>
      </trkpt>
      <trkpt lat="56.848117721861" lon="14.762322057351">
        <ele>172.4</ele>
        <time>2020-02-23T08:12:10Z</time>
      </trkpt>
      <trkpt lat="56.847984198194" lon="14.762567311745">
        <ele>173.4</ele>
        <time>2020-02-23T08:12:18Z</time>
      </trkpt>
      <trkpt lat="56.847810944321" lon="14.762764202576">
        <ele>172.8</ele>
        <time>2020-02-23T08:12:25Z</time>
      </trkpt>
      <trkpt lat="56.847771884667" lon="14.762876268579">
        <ele>172</ele>
        <time>2020-02-23T08:12:27Z</time>
      </trkpt>
      <trkpt lat="56.847730394262" lon="14.763095706721">
        <ele>170.8</ele>
        <time>2020-02-23T08:12:31Z</time>
      </trkpt>
      <trkpt lat="56.847675073722" lon="14.76334892392">
        <ele>169.8</ele>
        <time>2020-02-23T08:12:36Z</time>
      </trkpt>
      <trkpt lat="56.847581699356" lon="14.763654108899">
        <ele>168.8</ele>
        <time>2020-02-23T08:12:43Z</time>
      </trkpt>
      <trkpt lat="56.847388748018" lon="14.76364480499">
        <ele>169</ele>
        <time>2020-02-23T08:12:52Z</time>
      </trkpt>
      <trkpt lat="56.847217841077" lon="14.763543384">
        <ele>169.2</ele>
        <time>2020-02-23T08:12:59Z</time>
      </trkpt>
      <trkpt lat="56.847033942191" lon="14.763482028492">
        <ele>169.8</ele>
        <time>2020-02-23T08:13:07Z</time>
      </trkpt>
      <trkpt lat="56.846854066617" lon="14.763440789544">
        <ele>169.4</ele>
        <time>2020-02-23T08:13:14Z</time>
      </trkpt>
      <trkpt lat="56.84667108974" lon="14.76343358111">
        <ele>169</ele>
        <time>2020-02-23T08:13:20Z</time>
      </trkpt>
      <trkpt lat="56.846476042927" lon="14.763612786132">
        <ele>169.6</ele>
        <time>2020-02-23T08:13:27Z</time>
      </trkpt>
      <trkpt lat="56.846422063491" lon="14.763923503165">
        <ele>169.2</ele>
        <time>2020-02-23T08:13:33Z</time>
      </trkpt>
      <trkpt lat="56.846360205069" lon="14.764248469428">
        <ele>169</ele>
        <time>2020-02-23T08:13:40Z</time>
      </trkpt>
      <trkpt lat="56.846211510163" lon="14.7644989206">
        <ele>169.8</ele>
        <time>2020-02-23T08:13:48Z</time>
      </trkpt>
      <trkpt lat="56.846048230751" lon="14.764647112592">
        <ele>169.8</ele>
        <time>2020-02-23T08:13:56Z</time>
      </trkpt>
      <trkpt lat="56.845862823123" lon="14.764696062888">
        <ele>169.8</ele>
        <time>2020-02-23T08:14:05Z</time>
      </trkpt>
      <trkpt lat="56.845671799622" lon="14.764705618254">
        <ele>169.2</ele>
        <time>2020-02-23T08:14:12Z</time>
      </trkpt>
      <trkpt lat="56.845472058945" lon="14.764613584992">
        <ele>169.6</ele>
        <time>2020-02-23T08:14:20Z</time>
      </trkpt>
      <trkpt lat="56.845295955226" lon="14.76455340295">
        <ele>170.8</ele>
        <time>2020-02-23T08:14:26Z</time>
      </trkpt>
      <trkpt lat="56.84511792367" lon="14.764484000818">
        <ele>171</ele>
        <time>2020-02-23T08:14:32Z</time>
      </trkpt>
      <trkpt lat="56.844944921254" lon="14.764355673929">
        <ele>171.4</ele>
        <time>2020-02-23T08:14:39Z</time>
      </trkpt>
      <trkpt lat="56.844863197729" lon="14.764287445263">
        <ele>171.8</ele>
        <time>2020-02-23T08:14:42Z</time>
      </trkpt>
      <trkpt lat="56.844803434782" lon="14.764164985704">
        <ele>171.8</ele>
        <time>2020-02-23T08:14:45Z</time>
      </trkpt>
      <trkpt lat="56.844844170816" lon="14.763831469903">
        <ele>171.6</ele>
        <time>2020-02-23T08:14:52Z</time>
      </trkpt>
      <trkpt lat="56.844810978492" lon="14.763497367369">
        <ele>172</ele>
        <time>2020-02-23T08:14:59Z</time>
      </trkpt>
      <trkpt lat="56.844633030755" lon="14.763377087104">
        <ele>171.6</ele>
        <time>2020-02-23T08:15:07Z</time>
      </trkpt>
      <trkpt lat="56.84446581185" lon="14.763526284924">
        <ele>172.6</ele>
        <time>2020-02-23T08:15:14Z</time>
      </trkpt>
      <trkpt lat="56.844292390339" lon="14.76364983413">
        <ele>172.4</ele>
        <time>2020-02-23T08:15:20Z</time>
      </trkpt>
      <trkpt lat="56.84410874291" lon="14.76372443304">
        <ele>171.2</ele>
        <time>2020-02-23T08:15:28Z</time>
      </trkpt>
      <trkpt lat="56.843920736893" lon="14.76376885711">
        <ele>171.2</ele>
        <time>2020-02-23T08:15:36Z</time>
      </trkpt>
      <trkpt lat="56.843739771672" lon="14.763815460474">
        <ele>170.8</ele>
        <time>2020-02-23T08:15:43Z</time>
      </trkpt>
      <trkpt lat="56.843551933293" lon="14.763806743298">
        <ele>170.6</ele>
        <time>2020-02-23T08:15:50Z</time>
      </trkpt>
      <trkpt lat="56.843364262552" lon="14.763780424132">
        <ele>170.4</ele>
        <time>2020-02-23T08:15:57Z</time>
      </trkpt>
      <trkpt lat="56.843255046395" lon="14.763757290088">
        <ele>169.6</ele>
        <time>2020-02-23T08:16:00Z</time>
      </trkpt>
      <trkpt lat="56.843072488613" lon="14.763662658437">
        <ele>170</ele>
        <time>2020-02-23T08:16:07Z</time>
      </trkpt>
      <trkpt lat="56.842999146988" lon="14.76362301205">
        <ele>170.8</ele>
        <time>2020-02-23T08:16:10Z</time>
      </trkpt>
      <trkpt lat="56.842867886434" lon="14.763674644554">
        <ele>169.6</ele>
        <time>2020-02-23T08:16:15Z</time>
      </trkpt>
      <trkpt lat="56.842754395508" lon="14.763930460142">
        <ele>169.8</ele>
        <time>2020-02-23T08:16:24Z</time>
      </trkpt>
      <trkpt lat="56.842680802426" lon="14.764061553058">
        <ele>170.8</ele>
        <time>2020-02-23T08:16:29Z</time>
      </trkpt>
      <trkpt lat="56.842560270704" lon="14.764301275398">
        <ele>172</ele>
        <time>2020-02-23T08:16:37Z</time>
      </trkpt>
      <trkpt lat="56.842532610434" lon="14.764356931214">
        <ele>173</ele>
        <time>2020-02-23T08:16:39Z</time>
      </trkpt>
      <trkpt lat="56.842506710363" lon="14.76444611463">
        <ele>174.2</ele>
        <time>2020-02-23T08:16:42Z</time>
      </trkpt>
      <trkpt lat="56.842430351254" lon="14.764592881699">
        <ele>175.2</ele>
        <time>2020-02-23T08:16:47Z</time>
      </trkpt>
      <trkpt lat="56.842337731259" lon="14.764816929886">
        <ele>176.4</ele>
        <time>2020-02-23T08:16:53Z</time>
      </trkpt>
      <trkpt lat="56.84222700636" lon="14.765024214273">
        <ele>177.4</ele>
        <time>2020-02-23T08:17:00Z</time>
      </trkpt>
      <trkpt lat="56.842071354477" lon="14.765215824507">
        <ele>178.4</ele>
        <time>2020-02-23T08:17:09Z</time>
      </trkpt>
      <trkpt lat="56.842052579021" lon="14.765226804796">
        <ele>178.8</ele>
        <time>2020-02-23T08:17:10Z</time>
      </trkpt>
      <trkpt lat="56.841871781438" lon="14.765345408681">
        <ele>178.2</ele>
        <time>2020-02-23T08:17:18Z</time>
      </trkpt>
      <trkpt lat="56.841776311597" lon="14.765404920171">
        <ele>177.6</ele>
        <time>2020-02-23T08:17:22Z</time>
      </trkpt>
      <trkpt lat="56.841602806267" lon="14.765561158787">
        <ele>177.4</ele>
        <time>2020-02-23T08:17:30Z</time>
      </trkpt>
      <trkpt lat="56.841435755" lon="14.765726282217">
        <ele>177.2</ele>
        <time>2020-02-23T08:17:38Z</time>
      </trkpt>
      <trkpt lat="56.841406334531" lon="14.765767521165">
        <ele>177.4</ele>
        <time>2020-02-23T08:17:40Z</time>
      </trkpt>
      <trkpt lat="56.841334585467" lon="14.76583667184">
        <ele>177.6</ele>
        <time>2020-02-23T08:17:43Z</time>
      </trkpt>
      <trkpt lat="56.841173233892" lon="14.765969860231">
        <ele>179</ele>
        <time>2020-02-23T08:17:49Z</time>
      </trkpt>
      <trkpt lat="56.841091342729" lon="14.766047644263">
        <ele>180.2</ele>
        <time>2020-02-23T08:17:53Z</time>
      </trkpt>
      <trkpt lat="56.84102001276" lon="14.766144790484">
        <ele>181.4</ele>
        <time>2020-02-23T08:17:57Z</time>
      </trkpt>
      <trkpt lat="56.840946754954" lon="14.766281583092">
        <ele>182.6</ele>
        <time>2020-02-23T08:18:01Z</time>
      </trkpt>
      <trkpt lat="56.840889841853" lon="14.766410999628">
        <ele>183.8</ele>
        <time>2020-02-23T08:18:05Z</time>
      </trkpt>
      <trkpt lat="56.840845753059" lon="14.766532788635">
        <ele>184.8</ele>
        <time>2020-02-23T08:18:09Z</time>
      </trkpt>
      <trkpt lat="56.840733184142" lon="14.766800171245">
        <ele>185.8</ele>
        <time>2020-02-23T08:18:16Z</time>
      </trkpt>
      <trkpt lat="56.840575436784" lon="14.76699588861">
        <ele>183.8</ele>
        <time>2020-02-23T08:18:27Z</time>
      </trkpt>
      <trkpt lat="56.84044082347" lon="14.767071074253">
        <ele>182.8</ele>
        <time>2020-02-23T08:18:32Z</time>
      </trkpt>
      <trkpt lat="56.84026480357" lon="14.767216667856">
        <ele>182.4</ele>
        <time>2020-02-23T08:18:41Z</time>
      </trkpt>
      <trkpt lat="56.840096746475" lon="14.767338792139">
        <ele>182</ele>
        <time>2020-02-23T08:18:49Z</time>
      </trkpt>
      <trkpt lat="56.840075959363" lon="14.767354382473">
        <ele>181.6</ele>
        <time>2020-02-23T08:18:50Z</time>
      </trkpt>
      <trkpt lat="56.839895413237" lon="14.767482290267">
        <ele>181.4</ele>
        <time>2020-02-23T08:18:58Z</time>
      </trkpt>
      <trkpt lat="56.839715956758" lon="14.767611539165">
        <ele>180.8</ele>
        <time>2020-02-23T08:19:04Z</time>
      </trkpt>
      <trkpt lat="56.839636915441" lon="14.767663255488">
        <ele>180.6</ele>
        <time>2020-02-23T08:19:06Z</time>
      </trkpt>
      <trkpt lat="56.839483778128" lon="14.767778841889">
        <ele>179.4</ele>
        <time>2020-02-23T08:19:11Z</time>
      </trkpt>
      <trkpt lat="56.839376741265" lon="14.767861571242">
        <ele>178.4</ele>
        <time>2020-02-23T08:19:15Z</time>
      </trkpt>
      <trkpt lat="56.839325444037" lon="14.767895434118">
        <ele>177.2</ele>
        <time>2020-02-23T08:19:17Z</time>
      </trkpt>
      <trkpt lat="56.839268028022" lon="14.767939271455">
        <ele>176.2</ele>
        <time>2020-02-23T08:19:19Z</time>
      </trkpt>
      <trkpt lat="56.839154369458" lon="14.768032394364">
        <ele>175</ele>
        <time>2020-02-23T08:19:23Z</time>
      </trkpt>
      <trkpt lat="56.83901422409" lon="14.768122918884">
        <ele>174</ele>
        <time>2020-02-23T08:19:28Z</time>
      </trkpt>
      <trkpt lat="56.838922442285" lon="14.768229536652">
        <ele>172.8</ele>
        <time>2020-02-23T08:19:32Z</time>
      </trkpt>
      <trkpt lat="56.838757235036" lon="14.768374375884">
        <ele>171.8</ele>
        <time>2020-02-23T08:19:39Z</time>
      </trkpt>
      <trkpt lat="56.838607282845" lon="14.768564645014">
        <ele>171</ele>
        <time>2020-02-23T08:19:46Z</time>
      </trkpt>
      <trkpt lat="56.838542239301" lon="14.768652403507">
        <ele>170.8</ele>
        <time>2020-02-23T08:19:49Z</time>
      </trkpt>
      <trkpt lat="56.838373176378" lon="14.768828674864">
        <ele>170.4</ele>
        <time>2020-02-23T08:19:54Z</time>
      </trkpt>
      <trkpt lat="56.838208891138" lon="14.769030678654">
        <ele>170</ele>
        <time>2020-02-23T08:20:01Z</time>
      </trkpt>
      <trkpt lat="56.838146948897" lon="14.76910980379">
        <ele>169.6</ele>
        <time>2020-02-23T08:20:04Z</time>
      </trkpt>
      <trkpt lat="56.837983753304" lon="14.769338881117">
        <ele>169.8</ele>
        <time>2020-02-23T08:20:11Z</time>
      </trkpt>
      <trkpt lat="56.837877219355" lon="14.769464022884">
        <ele>169.8</ele>
        <time>2020-02-23T08:20:16Z</time>
      </trkpt>
      <trkpt lat="56.837724752594" lon="14.769670971995">
        <ele>168.4</ele>
        <time>2020-02-23T08:20:23Z</time>
      </trkpt>
      <trkpt lat="56.837604304691" lon="14.769814302485">
        <ele>167.4</ele>
        <time>2020-02-23T08:20:28Z</time>
      </trkpt>
      <trkpt lat="56.837474971974" lon="14.770085373131">
        <ele>166.6</ele>
        <time>2020-02-23T08:20:34Z</time>
      </trkpt>
      <trkpt lat="56.837389979508" lon="14.770342697461">
        <ele>166.4</ele>
        <time>2020-02-23T08:20:40Z</time>
      </trkpt>
      <trkpt lat="56.837371036414" lon="14.770683589334">
        <ele>165.8</ele>
        <time>2020-02-23T08:20:47Z</time>
      </trkpt>
      <trkpt lat="56.837399618693" lon="14.771038311342">
        <ele>165.8</ele>
        <time>2020-02-23T08:20:55Z</time>
      </trkpt>
      <trkpt lat="56.837397271761" lon="14.771262610986">
        <ele>165.8</ele>
        <time>2020-02-23T08:21:02Z</time>
      </trkpt>
      <trkpt lat="56.837444210401" lon="14.771622865048">
        <ele>165.6</ele>
        <time>2020-02-23T08:21:08Z</time>
      </trkpt>
      <trkpt lat="56.837456950889" lon="14.771720346545">
        <ele>165.6</ele>
        <time>2020-02-23T08:21:10Z</time>
      </trkpt>
      <trkpt lat="56.837395846838" lon="14.772051180138">
        <ele>166</ele>
        <time>2020-02-23T08:21:17Z</time>
      </trkpt>
      <trkpt lat="56.837380172685" lon="14.772392407287">
        <ele>166</ele>
        <time>2020-02-23T08:21:24Z</time>
      </trkpt>
      <trkpt lat="56.837505649728" lon="14.772639589518">
        <ele>167.4</ele>
        <time>2020-02-23T08:21:32Z</time>
      </trkpt>
      <trkpt lat="56.837595000782" lon="14.772940415909">
        <ele>166.6</ele>
        <time>2020-02-23T08:21:41Z</time>
      </trkpt>
      <trkpt lat="56.837657948851" lon="14.773127080822">
        <ele>166.4</ele>
        <time>2020-02-23T08:21:45Z</time>
      </trkpt>
      <trkpt lat="56.837719388178" lon="14.773493788947">
        <ele>166</ele>
        <time>2020-02-23T08:21:51Z</time>
      </trkpt>
      <trkpt lat="56.837717795617" lon="14.773851193163">
        <ele>165.8</ele>
        <time>2020-02-23T08:21:57Z</time>
      </trkpt>
      <trkpt lat="56.837709246079" lon="14.774179009272">
        <ele>165.4</ele>
        <time>2020-02-23T08:22:02Z</time>
      </trkpt>
      <trkpt lat="56.837620733215" lon="14.774423425476">
        <ele>165.2</ele>
        <time>2020-02-23T08:22:08Z</time>
      </trkpt>
      <trkpt lat="56.837533226179" lon="14.774742775866">
        <ele>165.4</ele>
        <time>2020-02-23T08:22:15Z</time>
      </trkpt>
      <trkpt lat="56.837504895357" lon="14.7750768784">
        <ele>165.6</ele>
        <time>2020-02-23T08:22:24Z</time>
      </trkpt>
      <trkpt lat="56.837568011064" lon="14.775254658499">
        <ele>165.6</ele>
        <time>2020-02-23T08:22:29Z</time>
      </trkpt>
      <trkpt lat="56.837651494788" lon="14.775569063568">
        <ele>165.8</ele>
        <time>2020-02-23T08:22:36Z</time>
      </trkpt>
      <trkpt lat="56.837589552547" lon="14.77587818804">
        <ele>166</ele>
        <time>2020-02-23T08:22:43Z</time>
      </trkpt>
      <trkpt lat="56.837454520138" lon="14.776144648641">
        <ele>165.4</ele>
        <time>2020-02-23T08:22:49Z</time>
      </trkpt>
      <trkpt lat="56.837307920707" lon="14.776405828645">
        <ele>165.2</ele>
        <time>2020-02-23T08:22:55Z</time>
      </trkpt>
      <trkpt lat="56.83717020609" lon="14.776625434425">
        <ele>165.6</ele>
        <time>2020-02-23T08:23:01Z</time>
      </trkpt>
      <trkpt lat="56.837010698533" lon="14.776814865365">
        <ele>166.4</ele>
        <time>2020-02-23T08:23:11Z</time>
      </trkpt>
      <trkpt lat="56.836815316444" lon="14.776927266644">
        <ele>165.8</ele>
        <time>2020-02-23T08:23:19Z</time>
      </trkpt>
      <trkpt lat="56.836683385338" lon="14.777074033713">
        <ele>166.4</ele>
        <time>2020-02-23T08:23:25Z</time>
      </trkpt>
      <trkpt lat="56.836563775625" lon="14.777224824094">
        <ele>167.4</ele>
        <time>2020-02-23T08:23:30Z</time>
      </trkpt>
      <trkpt lat="56.836371746296" lon="14.777373016086">
        <ele>167.8</ele>
        <time>2020-02-23T08:23:35Z</time>
      </trkpt>
      <trkpt lat="56.836196396948" lon="14.777524644657">
        <ele>166.8</ele>
        <time>2020-02-23T08:23:42Z</time>
      </trkpt>
      <trkpt lat="56.836013084795" lon="14.777403190926">
        <ele>167</ele>
        <time>2020-02-23T08:23:49Z</time>
      </trkpt>
      <trkpt lat="56.835831951936" lon="14.777263380834">
        <ele>167.8</ele>
        <time>2020-02-23T08:23:57Z</time>
      </trkpt>
      <trkpt lat="56.835654842389" lon="14.777231697252">
        <ele>168.6</ele>
        <time>2020-02-23T08:24:05Z</time>
      </trkpt>
      <trkpt lat="56.835468345114" lon="14.777301099384">
        <ele>169.2</ele>
        <time>2020-02-23T08:24:12Z</time>
      </trkpt>
      <trkpt lat="56.835343287166" lon="14.777410147903">
        <ele>169.6</ele>
        <time>2020-02-23T08:24:16Z</time>
      </trkpt>
      <trkpt lat="56.835168105456" lon="14.777590694029">
        <ele>169.8</ele>
        <time>2020-02-23T08:24:22Z</time>
      </trkpt>
      <trkpt lat="56.835032989228" lon="14.77782278884">
        <ele>170.2</ele>
        <time>2020-02-23T08:24:29Z</time>
      </trkpt>
      <trkpt lat="56.834903237416" lon="14.778070390166">
        <ele>170.2</ele>
        <time>2020-02-23T08:24:37Z</time>
      </trkpt>
      <trkpt lat="56.834798379847" lon="14.778321679528">
        <ele>169.8</ele>
        <time>2020-02-23T08:24:46Z</time>
      </trkpt>
      <trkpt lat="56.834633256417" lon="14.778505326957">
        <ele>169.6</ele>
        <time>2020-02-23T08:24:51Z</time>
      </trkpt>
      <trkpt lat="56.834496547628" lon="14.77873725413">
        <ele>170</ele>
        <time>2020-02-23T08:24:57Z</time>
      </trkpt>
      <trkpt lat="56.83443183936" lon="14.779034560123">
        <ele>171</ele>
        <time>2020-02-23T08:25:04Z</time>
      </trkpt>
      <trkpt lat="56.834404514366" lon="14.779380313498">
        <ele>172</ele>
        <time>2020-02-23T08:25:11Z</time>
      </trkpt>
      <trkpt lat="56.834363023961" lon="14.779721624466">
        <ele>171</ele>
        <time>2020-02-23T08:25:18Z</time>
      </trkpt>
      <trkpt lat="56.834293202734" lon="14.780049440575">
        <ele>170</ele>
        <time>2020-02-23T08:25:25Z</time>
      </trkpt>
      <trkpt lat="56.834273086174" lon="14.780147341167">
        <ele>169.8</ele>
        <time>2020-02-23T08:25:27Z</time>
      </trkpt>
      <trkpt lat="56.834220866937" lon="14.78038848843">
        <ele>168.4</ele>
        <time>2020-02-23T08:25:32Z</time>
      </trkpt>
      <trkpt lat="56.834140316878" lon="14.780713203236">
        <ele>168.6</ele>
        <time>2020-02-23T08:25:39Z</time>
      </trkpt>
      <trkpt lat="56.834069322185" lon="14.781059291887">
        <ele>168.2</ele>
        <time>2020-02-23T08:25:46Z</time>
      </trkpt>
      <trkpt lat="56.834016264758" lon="14.781385263978">
        <ele>168.6</ele>
        <time>2020-02-23T08:25:53Z</time>
      </trkpt>
      <trkpt lat="56.833953651965" lon="14.781666560542">
        <ele>169.4</ele>
        <time>2020-02-23T08:26:00Z</time>
      </trkpt>
      <trkpt lat="56.833926997523" lon="14.781861272079">
        <ele>170.8</ele>
        <time>2020-02-23T08:26:04Z</time>
      </trkpt>
      <trkpt lat="56.833884082195" lon="14.781968979494">
        <ele>172</ele>
        <time>2020-02-23T08:26:07Z</time>
      </trkpt>
      <trkpt lat="56.833848626758" lon="14.782083476248">
        <ele>173</ele>
        <time>2020-02-23T08:26:10Z</time>
      </trkpt>
      <trkpt lat="56.83382834256" lon="14.782418500791">
        <ele>173.6</ele>
        <time>2020-02-23T08:26:17Z</time>
      </trkpt>
      <trkpt lat="56.83379230039" lon="14.782768528935">
        <ele>174.2</ele>
        <time>2020-02-23T08:26:24Z</time>
      </trkpt>
      <trkpt lat="56.833694818893" lon="14.783069355326">
        <ele>174.2</ele>
        <time>2020-02-23T08:26:32Z</time>
      </trkpt>
      <trkpt lat="56.833627931331" lon="14.783417204176">
        <ele>173.6</ele>
        <time>2020-02-23T08:26:39Z</time>
      </trkpt>
      <trkpt lat="56.833652741755" lon="14.783738314765">
        <ele>173.4</ele>
        <time>2020-02-23T08:26:47Z</time>
      </trkpt>
      <trkpt lat="56.833727089208" lon="14.783991699602">
        <ele>172.8</ele>
        <time>2020-02-23T08:26:52Z</time>
      </trkpt>
      <trkpt lat="56.833784672861" lon="14.784124468898">
        <ele>171.6</ele>
        <time>2020-02-23T08:26:55Z</time>
      </trkpt>
      <trkpt lat="56.833909311714" lon="14.784423115995">
        <ele>171</ele>
        <time>2020-02-23T08:27:02Z</time>
      </trkpt>
      <trkpt lat="56.833950550662" lon="14.784561584983">
        <ele>170.4</ele>
        <time>2020-02-23T08:27:05Z</time>
      </trkpt>
      <trkpt lat="56.834062784303" lon="14.784700473066">
        <ele>169.2</ele>
        <time>2020-02-23T08:27:09Z</time>
      </trkpt>
      <trkpt lat="56.834184405672" lon="14.784743388394">
        <ele>168</ele>
        <time>2020-02-23T08:27:12Z</time>
      </trkpt>
      <trkpt lat="56.834380542132" lon="14.784718661789">
        <ele>167.2</ele>
        <time>2020-02-23T08:27:18Z</time>
      </trkpt>
      <trkpt lat="56.83450140913" lon="14.784634088418">
        <ele>166.8</ele>
        <time>2020-02-23T08:27:23Z</time>
      </trkpt>
      <trkpt lat="56.834619258644" lon="14.784537361292">
        <ele>165.8</ele>
        <time>2020-02-23T08:27:28Z</time>
      </trkpt>
      <trkpt lat="56.8347805264" lon="14.784662000145">
        <ele>165.6</ele>
        <time>2020-02-23T08:27:36Z</time>
      </trkpt>
      <trkpt lat="56.834966353123" lon="14.784796613459">
        <ele>165.2</ele>
        <time>2020-02-23T08:27:44Z</time>
      </trkpt>
      <trkpt lat="56.835126195956" lon="14.78494488927">
        <ele>165.4</ele>
        <time>2020-02-23T08:27:51Z</time>
      </trkpt>
      <trkpt lat="56.835306993539" lon="14.785045052975">
        <ele>166</ele>
        <time>2020-02-23T08:27:59Z</time>
      </trkpt>
      <trkpt lat="56.835502878542" lon="14.785017895619">
        <ele>165.8</ele>
        <time>2020-02-23T08:28:07Z</time>
      </trkpt>
      <trkpt lat="56.835638078589" lon="14.784732659562">
        <ele>165.6</ele>
        <time>2020-02-23T08:28:15Z</time>
      </trkpt>
      <trkpt lat="56.835732039688" lon="14.784438287234">
        <ele>166</ele>
        <time>2020-02-23T08:28:22Z</time>
      </trkpt>
      <trkpt lat="56.835845782071" lon="14.784161768353">
        <ele>166.6</ele>
        <time>2020-02-23T08:28:29Z</time>
      </trkpt>
      <trkpt lat="56.835987603819" lon="14.783953394319">
        <ele>166.4</ele>
        <time>2020-02-23T08:28:36Z</time>
      </trkpt>
      <trkpt lat="56.836183069727" lon="14.783869407681">
        <ele>166</ele>
        <time>2020-02-23T08:28:43Z</time>
      </trkpt>
      <trkpt lat="56.836363783491" lon="14.783893212277">
        <ele>165.8</ele>
        <time>2020-02-23T08:28:48Z</time>
      </trkpt>
      <trkpt lat="56.836535780079" lon="14.783715432178">
        <ele>166</ele>
        <time>2020-02-23T08:28:55Z</time>
      </trkpt>
      <trkpt lat="56.836695371455" lon="14.783635887947">
        <ele>165.8</ele>
        <time>2020-02-23T08:29:05Z</time>
      </trkpt>
      <trkpt lat="56.836879857074" lon="14.783676791619">
        <ele>166.4</ele>
        <time>2020-02-23T08:29:12Z</time>
      </trkpt>
      <trkpt lat="56.837043304124" lon="14.783829426018">
        <ele>166.4</ele>
        <time>2020-02-23T08:29:19Z</time>
      </trkpt>
      <trkpt lat="56.837223431155" lon="14.783958842554">
        <ele>166</ele>
        <time>2020-02-23T08:29:26Z</time>
      </trkpt>
      <trkpt lat="56.83742585404" lon="14.78395666326">
        <ele>166.6</ele>
        <time>2020-02-23T08:29:33Z</time>
      </trkpt>
      <trkpt lat="56.837628528382" lon="14.783904192566">
        <ele>166.2</ele>
        <time>2020-02-23T08:29:40Z</time>
      </trkpt>
      <trkpt lat="56.837817791684" lon="14.783847950017">
        <ele>166.6</ele>
        <time>2020-02-23T08:29:47Z</time>
      </trkpt>
      <trkpt lat="56.83784494904" lon="14.783833197873">
        <ele>166.8</ele>
        <time>2020-02-23T08:29:48Z</time>
      </trkpt>
      <trkpt lat="56.838044102984" lon="14.783803190671">
        <ele>166.8</ele>
        <time>2020-02-23T08:29:57Z</time>
      </trkpt>
      <trkpt lat="56.838240490901" lon="14.783809225639">
        <ele>166.8</ele>
        <time>2020-02-23T08:30:04Z</time>
      </trkpt>
      <trkpt lat="56.83844509308" lon="14.783815679702">
        <ele>166.8</ele>
        <time>2020-02-23T08:30:11Z</time>
      </trkpt>
      <trkpt lat="56.838609629777" lon="14.783908718792">
        <ele>167</ele>
        <time>2020-02-23T08:30:20Z</time>
      </trkpt>
      <trkpt lat="56.838621280618" lon="14.784163947647">
        <ele>168</ele>
        <time>2020-02-23T08:30:26Z</time>
      </trkpt>
      <trkpt lat="56.838666878154" lon="14.784460499269">
        <ele>168.2</ele>
        <time>2020-02-23T08:30:33Z</time>
      </trkpt>
      <trkpt lat="56.838792774292" lon="14.784688067854">
        <ele>169</ele>
        <time>2020-02-23T08:30:40Z</time>
      </trkpt>
      <trkpt lat="56.838933590212" lon="14.784899543191">
        <ele>169.2</ele>
        <time>2020-02-23T08:30:46Z</time>
      </trkpt>
      <trkpt lat="56.839003495258" lon="14.785201626867">
        <ele>168.4</ele>
        <time>2020-02-23T08:30:52Z</time>
      </trkpt>
      <trkpt lat="56.838999807222" lon="14.785319224924">
        <ele>167.8</ele>
        <time>2020-02-23T08:30:54Z</time>
      </trkpt>
      <trkpt lat="56.838966782536" lon="14.785478564843">
        <ele>166.6</ele>
        <time>2020-02-23T08:30:57Z</time>
      </trkpt>
      <trkpt lat="56.838940211913" lon="14.78555090064">
        <ele>165.6</ele>
        <time>2020-02-23T08:30:59Z</time>
      </trkpt>
      <trkpt lat="56.838866786469" lon="14.785857929637">
        <ele>165.4</ele>
        <time>2020-02-23T08:31:06Z</time>
      </trkpt>
      <trkpt lat="56.83882563134" lon="14.786202509546">
        <ele>165.4</ele>
        <time>2020-02-23T08:31:13Z</time>
      </trkpt>
      <trkpt lat="56.838734771544" lon="14.786488751431">
        <ele>166.2</ele>
        <time>2020-02-23T08:31:21Z</time>
      </trkpt>
      <trkpt lat="56.838720689952" lon="14.786576929019">
        <ele>166.8</ele>
        <time>2020-02-23T08:31:23Z</time>
      </trkpt>
      <trkpt lat="56.838662687204" lon="14.786891585545">
        <ele>166.4</ele>
        <time>2020-02-23T08:31:29Z</time>
      </trkpt>
      <trkpt lat="56.838580963679" lon="14.787235159626">
        <ele>166.2</ele>
        <time>2020-02-23T08:31:36Z</time>
      </trkpt>
      <trkpt lat="56.838490439159" lon="14.787576051499">
        <ele>165.8</ele>
        <time>2020-02-23T08:31:43Z</time>
      </trkpt>
      <trkpt lat="56.838480380879" lon="14.787623241596">
        <ele>165.6</ele>
        <time>2020-02-23T08:31:44Z</time>
      </trkpt>
      <trkpt lat="56.838402513028" lon="14.787949632782">
        <ele>165.6</ele>
        <time>2020-02-23T08:31:51Z</time>
      </trkpt>
      <trkpt lat="56.838376529138" lon="14.788032697411">
        <ele>166.8</ele>
        <time>2020-02-23T08:31:53Z</time>
      </trkpt>
      <trkpt lat="56.838345683746" lon="14.788115426764">
        <ele>168</ele>
        <time>2020-02-23T08:31:55Z</time>
      </trkpt>
      <trkpt lat="56.838249291896" lon="14.788383060831">
        <ele>167</ele>
        <time>2020-02-23T08:32:02Z</time>
      </trkpt>
      <trkpt lat="56.838277287442" lon="14.788727976016">
        <ele>166.4</ele>
        <time>2020-02-23T08:32:08Z</time>
      </trkpt>
      <trkpt lat="56.838297236364" lon="14.78887180942">
        <ele>166.2</ele>
        <time>2020-02-23T08:32:11Z</time>
      </trkpt>
      <trkpt lat="56.838312826698" lon="14.78890868978">
        <ele>166</ele>
        <time>2020-02-23T08:32:12Z</time>
      </trkpt>
      <trkpt lat="56.838365716487" lon="14.788965351424">
        <ele>165.8</ele>
        <time>2020-02-23T08:32:14Z</time>
      </trkpt>
      <trkpt lat="56.83856830701" lon="14.788983875423">
        <ele>165.4</ele>
        <time>2020-02-23T08:32:20Z</time>
      </trkpt>
      <trkpt lat="56.838754888104" lon="14.788963088311">
        <ele>165.4</ele>
        <time>2020-02-23T08:32:26Z</time>
      </trkpt>
      <trkpt lat="56.838936104782" lon="14.789036765212">
        <ele>166.6</ele>
        <time>2020-02-23T08:32:34Z</time>
      </trkpt>
      <trkpt lat="56.839101647307" lon="14.789193339104">
        <ele>166</ele>
        <time>2020-02-23T08:32:41Z</time>
      </trkpt>
      <trkpt lat="56.839195943682" lon="14.789246396531">
        <ele>166.2</ele>
        <time>2020-02-23T08:32:45Z</time>
      </trkpt>
      <trkpt lat="56.839386128993" lon="14.789340106173">
        <ele>167.2</ele>
        <time>2020-02-23T08:32:53Z</time>
      </trkpt>
      <trkpt lat="56.83949031601" lon="14.78939819274">
        <ele>167.8</ele>
        <time>2020-02-23T08:32:59Z</time>
      </trkpt>
      <trkpt lat="56.839525184714" lon="14.789497853531">
        <ele>168</ele>
        <time>2020-02-23T08:33:02Z</time>
      </trkpt>
      <trkpt lat="56.839534907718" lon="14.789577062486">
        <ele>168.2</ele>
        <time>2020-02-23T08:33:04Z</time>
      </trkpt>
      <trkpt lat="56.83963699926" lon="14.78985919724">
        <ele>168.8</ele>
        <time>2020-02-23T08:33:11Z</time>
      </trkpt>
      <trkpt lat="56.839672454697" lon="14.789978304039">
        <ele>169.2</ele>
        <time>2020-02-23T08:33:14Z</time>
      </trkpt>
      <trkpt lat="56.839720566803" lon="14.790278711335">
        <ele>170.4</ele>
        <time>2020-02-23T08:33:21Z</time>
      </trkpt>
      <trkpt lat="56.839729116341" lon="14.790615076982">
        <ele>170</ele>
        <time>2020-02-23T08:33:29Z</time>
      </trkpt>
      <trkpt lat="56.839714699473" lon="14.790967032963">
        <ele>170</ele>
        <time>2020-02-23T08:33:36Z</time>
      </trkpt>
      <trkpt lat="56.839778234275" lon="14.791286550991">
        <ele>170</ele>
        <time>2020-02-23T08:33:43Z</time>
      </trkpt>
      <trkpt lat="56.839790890944" lon="14.79132770612">
        <ele>170.2</ele>
        <time>2020-02-23T08:33:44Z</time>
      </trkpt>
      <trkpt lat="56.839899604187" lon="14.791538678543">
        <ele>169</ele>
        <time>2020-02-23T08:33:50Z</time>
      </trkpt>
      <trkpt lat="56.839994990209" lon="14.791613109815">
        <ele>167.8</ele>
        <time>2020-02-23T08:33:54Z</time>
      </trkpt>
      <trkpt lat="56.840185426977" lon="14.791772114458">
        <ele>167.4</ele>
        <time>2020-02-23T08:34:01Z</time>
      </trkpt>
      <trkpt lat="56.840354070805" lon="14.791906979229">
        <ele>167.8</ele>
        <time>2020-02-23T08:34:06Z</time>
      </trkpt>
      <trkpt lat="56.840532605275" lon="14.792023990553">
        <ele>167.8</ele>
        <time>2020-02-23T08:34:12Z</time>
      </trkpt>
      <trkpt lat="56.84073838092" lon="14.792097918911">
        <ele>167.6</ele>
        <time>2020-02-23T08:34:20Z</time>
      </trkpt>
      <trkpt lat="56.840934182104" lon="14.792208057077">
        <ele>167.6</ele>
        <time>2020-02-23T08:34:27Z</time>
      </trkpt>
      <trkpt lat="56.841110704918" lon="14.792290367335">
        <ele>166.8</ele>
        <time>2020-02-23T08:34:33Z</time>
      </trkpt>
      <trkpt lat="56.841136437351" lon="14.792304281289">
        <ele>166.8</ele>
        <time>2020-02-23T08:34:34Z</time>
      </trkpt>
      <trkpt lat="56.841309523586" lon="14.792413916541">
        <ele>166.8</ele>
        <time>2020-02-23T08:34:42Z</time>
      </trkpt>
      <trkpt lat="56.841489734436" lon="14.79252212687">
        <ele>167</ele>
        <time>2020-02-23T08:34:51Z</time>
      </trkpt>
      <trkpt lat="56.841671202571" lon="14.792588846794">
        <ele>167.2</ele>
        <time>2020-02-23T08:34:58Z</time>
      </trkpt>
      <trkpt lat="56.841878067863" lon="14.792658500383">
        <ele>167.4</ele>
        <time>2020-02-23T08:35:05Z</time>
      </trkpt>
      <trkpt lat="56.842057105247" lon="14.792713485647">
        <ele>166.4</ele>
        <time>2020-02-23T08:35:12Z</time>
      </trkpt>
      <trkpt lat="56.84212474718" lon="14.792853044282">
        <ele>166.4</ele>
        <time>2020-02-23T08:35:18Z</time>
      </trkpt>
      <trkpt lat="56.842117287289" lon="14.793194522888">
        <ele>167.8</ele>
        <time>2020-02-23T08:35:25Z</time>
      </trkpt>
      <trkpt lat="56.842115694728" lon="14.793238695501">
        <ele>168</ele>
        <time>2020-02-23T08:35:26Z</time>
      </trkpt>
      <trkpt lat="56.842140840428" lon="14.793611941508">
        <ele>168.4</ele>
        <time>2020-02-23T08:35:33Z</time>
      </trkpt>
      <trkpt lat="56.842206805981" lon="14.793785949752">
        <ele>168.6</ele>
        <time>2020-02-23T08:35:37Z</time>
      </trkpt>
      <trkpt lat="56.842341586933" lon="14.79405433819">
        <ele>168.8</ele>
        <time>2020-02-23T08:35:46Z</time>
      </trkpt>
      <trkpt lat="56.842464381768" lon="14.794226418597">
        <ele>169</ele>
        <time>2020-02-23T08:35:53Z</time>
      </trkpt>
      <trkpt lat="56.842564126378" lon="14.794545349892">
        <ele>169</ele>
        <time>2020-02-23T08:36:03Z</time>
      </trkpt>
      <trkpt lat="56.84261592652" lon="14.794776941789">
        <ele>170.2</ele>
        <time>2020-02-23T08:36:09Z</time>
      </trkpt>
      <trkpt lat="56.84263771946" lon="14.794977939751">
        <ele>170.4</ele>
        <time>2020-02-23T08:36:14Z</time>
      </trkpt>
      <trkpt lat="56.842796472646" lon="14.795190337097">
        <ele>170.4</ele>
        <time>2020-02-23T08:36:20Z</time>
      </trkpt>
      <trkpt lat="56.842987747604" lon="14.795267869672">
        <ele>170.8</ele>
        <time>2020-02-23T08:36:27Z</time>
      </trkpt>
      <trkpt lat="56.843165276246" lon="14.795386725014">
        <ele>170.6</ele>
        <time>2020-02-23T08:36:34Z</time>
      </trkpt>
      <trkpt lat="56.843342301974" lon="14.795494097153">
        <ele>170.8</ele>
        <time>2020-02-23T08:36:40Z</time>
      </trkpt>
      <trkpt lat="56.843498037676" lon="14.795483703597">
        <ele>171.2</ele>
        <time>2020-02-23T08:36:47Z</time>
      </trkpt>
      <trkpt lat="56.843682523295" lon="14.795467358892">
        <ele>171</ele>
        <time>2020-02-23T08:36:56Z</time>
      </trkpt>
      <trkpt lat="56.843700376742" lon="14.795481356665">
        <ele>171.2</ele>
        <time>2020-02-23T08:36:58Z</time>
      </trkpt>
      <trkpt lat="56.843788219054" lon="14.79550273051">
        <ele>171.4</ele>
        <time>2020-02-23T08:37:01Z</time>
      </trkpt>
      <trkpt lat="56.844008243929" lon="14.795522176518">
        <ele>171.8</ele>
        <time>2020-02-23T08:37:07Z</time>
      </trkpt>
      <trkpt lat="56.844182755087" lon="14.795653185615">
        <ele>171.8</ele>
        <time>2020-02-23T08:37:14Z</time>
      </trkpt>
      <trkpt lat="56.844260203843" lon="14.795715966046">
        <ele>172.4</ele>
        <time>2020-02-23T08:37:18Z</time>
      </trkpt>
      <trkpt lat="56.844271603227" lon="14.795729125629">
        <ele>172.4</ele>
        <time>2020-02-23T08:37:19Z</time>
      </trkpt>
      <trkpt lat="56.844480144899" lon="14.795787044558">
        <ele>172.6</ele>
        <time>2020-02-23T08:37:28Z</time>
      </trkpt>
      <trkpt lat="56.84469379953" lon="14.795719905539">
        <ele>172.2</ele>
        <time>2020-02-23T08:37:35Z</time>
      </trkpt>
      <trkpt lat="56.844881134995" lon="14.795705907766">
        <ele>171.8</ele>
        <time>2020-02-23T08:37:43Z</time>
      </trkpt>
      <trkpt lat="56.845035864869" lon="14.795644636077">
        <ele>171.2</ele>
        <time>2020-02-23T08:37:48Z</time>
      </trkpt>
      <trkpt lat="56.845235102632" lon="14.795568528425">
        <ele>170.6</ele>
        <time>2020-02-23T08:37:54Z</time>
      </trkpt>
      <trkpt lat="56.845412547455" lon="14.795517398835">
        <ele>170.2</ele>
        <time>2020-02-23T08:38:02Z</time>
      </trkpt>
      <trkpt lat="56.845594518504" lon="14.79543818988">
        <ele>169.2</ele>
        <time>2020-02-23T08:38:09Z</time>
      </trkpt>
      <trkpt lat="56.845786296376" lon="14.795386976471">
        <ele>168.8</ele>
        <time>2020-02-23T08:38:16Z</time>
      </trkpt>
      <trkpt lat="56.845959298792" lon="14.795520751595">
        <ele>169.8</ele>
        <time>2020-02-23T08:38:24Z</time>
      </trkpt>
      <trkpt lat="56.846146298981" lon="14.795539191775">
        <ele>169.8</ele>
        <time>2020-02-23T08:38:30Z</time>
      </trkpt>
      <trkpt lat="56.846356517033" lon="14.795533408264">
        <ele>168.4</ele>
        <time>2020-02-23T08:38:38Z</time>
      </trkpt>
      <trkpt lat="56.846419465102" lon="14.795524691088">
        <ele>167.8</ele>
        <time>2020-02-23T08:38:40Z</time>
      </trkpt>
      <trkpt lat="56.84660571092" lon="14.795503736338">
        <ele>167.6</ele>
        <time>2020-02-23T08:38:45Z</time>
      </trkpt>
      <trkpt lat="56.846670167731" lon="14.795503401062">
        <ele>167.8</ele>
        <time>2020-02-23T08:38:47Z</time>
      </trkpt>
      <trkpt lat="56.846865466001" lon="14.795596021057">
        <ele>167.8</ele>
        <time>2020-02-23T08:38:55Z</time>
      </trkpt>
      <trkpt lat="56.847039977159" lon="14.79573490914">
        <ele>168.4</ele>
        <time>2020-02-23T08:39:03Z</time>
      </trkpt>
      <trkpt lat="56.847215745602" lon="14.795851585188">
        <ele>168.6</ele>
        <time>2020-02-23T08:39:10Z</time>
      </trkpt>
      <trkpt lat="56.847395453538" lon="14.79599558623">
        <ele>168.6</ele>
        <time>2020-02-23T08:39:17Z</time>
      </trkpt>
      <trkpt lat="56.847539706037" lon="14.796196081278">
        <ele>168.4</ele>
        <time>2020-02-23T08:39:24Z</time>
      </trkpt>
      <trkpt lat="56.84757382037" lon="14.796262046831">
        <ele>169</ele>
        <time>2020-02-23T08:39:26Z</time>
      </trkpt>
      <trkpt lat="56.847733327927" lon="14.796450304305">
        <ele>168.8</ele>
        <time>2020-02-23T08:39:33Z</time>
      </trkpt>
      <trkpt lat="56.847909766922" lon="14.79662087597">
        <ele>168.6</ele>
        <time>2020-02-23T08:39:41Z</time>
      </trkpt>
      <trkpt lat="56.848096683292" lon="14.796770995799">
        <ele>168.2</ele>
        <time>2020-02-23T08:39:49Z</time>
      </trkpt>
      <trkpt lat="56.848271613545" lon="14.796918601058">
        <ele>168.2</ele>
        <time>2020-02-23T08:39:56Z</time>
      </trkpt>
      <trkpt lat="56.848305811697" lon="14.796933604659">
        <ele>167.8</ele>
        <time>2020-02-23T08:39:57Z</time>
      </trkpt>
      <trkpt lat="56.848464481064" lon="14.796992110321">
        <ele>166.6</ele>
        <time>2020-02-23T08:40:02Z</time>
      </trkpt>
      <trkpt lat="56.848535056662" lon="14.79700225242">
        <ele>165.4</ele>
        <time>2020-02-23T08:40:04Z</time>
      </trkpt>
      <trkpt lat="56.848737395728" lon="14.797016669288">
        <ele>165.6</ele>
        <time>2020-02-23T08:40:11Z</time>
      </trkpt>
      <trkpt lat="56.84892582084" lon="14.797052292363">
        <ele>166.2</ele>
        <time>2020-02-23T08:40:17Z</time>
      </trkpt>
      <trkpt lat="56.849122292576" lon="14.797121526857">
        <ele>164</ele>
        <time>2020-02-23T08:40:24Z</time>
      </trkpt>
      <trkpt lat="56.849295881725" lon="14.797240214561">
        <ele>164.6</ele>
        <time>2020-02-23T08:40:32Z</time>
      </trkpt>
      <trkpt lat="56.849402667131" lon="14.797338198972">
        <ele>165.2</ele>
        <time>2020-02-23T08:40:37Z</time>
      </trkpt>
      <trkpt lat="56.849559660118" lon="14.797467783146">
        <ele>166.4</ele>
        <time>2020-02-23T08:40:44Z</time>
      </trkpt>
      <trkpt lat="56.849746827945" lon="14.797601474451">
        <ele>167</ele>
        <time>2020-02-23T08:40:52Z</time>
      </trkpt>
      <trkpt lat="56.849846069641" lon="14.797653023136">
        <ele>165.4</ele>
        <time>2020-02-23T08:40:56Z</time>
      </trkpt>
      <trkpt lat="56.850025274663" lon="14.797745810769">
        <ele>165.2</ele>
        <time>2020-02-23T08:41:03Z</time>
      </trkpt>
      <trkpt lat="56.850210514653" lon="14.797827282837">
        <ele>165.6</ele>
        <time>2020-02-23T08:41:09Z</time>
      </trkpt>
      <trkpt lat="56.850338590085" lon="14.797854607831">
        <ele>164.8</ele>
        <time>2020-02-23T08:41:15Z</time>
      </trkpt>
      <trkpt lat="56.850524919722" lon="14.797843962818">
        <ele>164.4</ele>
        <time>2020-02-23T08:41:22Z</time>
      </trkpt>
      <trkpt lat="56.850550652155" lon="14.797849075777">
        <ele>164.2</ele>
        <time>2020-02-23T08:41:23Z</time>
      </trkpt>
      <trkpt lat="56.850735137774" lon="14.797874556753">
        <ele>164.2</ele>
        <time>2020-02-23T08:41:29Z</time>
      </trkpt>
      <trkpt lat="56.850920880678" lon="14.797907078525">
        <ele>164.8</ele>
        <time>2020-02-23T08:41:37Z</time>
      </trkpt>
      <trkpt lat="56.851107880867" lon="14.797940522306">
        <ele>164.4</ele>
        <time>2020-02-23T08:41:44Z</time>
      </trkpt>
      <trkpt lat="56.851231597711" lon="14.797942031048">
        <ele>165.2</ele>
        <time>2020-02-23T08:41:50Z</time>
      </trkpt>
      <trkpt lat="56.851432176578" lon="14.797976061562">
        <ele>165.4</ele>
        <time>2020-02-23T08:41:59Z</time>
      </trkpt>
      <trkpt lat="56.851623200079" lon="14.798052755947">
        <ele>165.4</ele>
        <time>2020-02-23T08:42:07Z</time>
      </trkpt>
      <trkpt lat="56.851822354023" lon="14.798117631853">
        <ele>165.6</ele>
        <time>2020-02-23T08:42:15Z</time>
      </trkpt>
      <trkpt lat="56.852007929289" lon="14.798235397548">
        <ele>165.6</ele>
        <time>2020-02-23T08:42:23Z</time>
      </trkpt>
      <trkpt lat="56.852183949189" lon="14.798317791625">
        <ele>166</ele>
        <time>2020-02-23T08:42:30Z</time>
      </trkpt>
      <trkpt lat="56.852357957433" lon="14.798528764048">
        <ele>165.6</ele>
        <time>2020-02-23T08:42:38Z</time>
      </trkpt>
      <trkpt lat="56.852516040067" lon="14.798670501977">
        <ele>166.4</ele>
        <time>2020-02-23T08:42:45Z</time>
      </trkpt>
      <trkpt lat="56.852675547624" lon="14.798818358693">
        <ele>167</ele>
        <time>2020-02-23T08:42:52Z</time>
      </trkpt>
      <trkpt lat="56.852866235849" lon="14.798917600389">
        <ele>166.6</ele>
        <time>2020-02-23T08:42:59Z</time>
      </trkpt>
      <trkpt lat="56.853023228836" lon="14.799114323582">
        <ele>167</ele>
        <time>2020-02-23T08:43:07Z</time>
      </trkpt>
      <trkpt lat="56.853185586239" lon="14.7992670418">
        <ele>167</ele>
        <time>2020-02-23T08:43:14Z</time>
      </trkpt>
      <trkpt lat="56.853362444329" lon="14.799418502733">
        <ele>166.8</ele>
        <time>2020-02-23T08:43:21Z</time>
      </trkpt>
      <trkpt lat="56.853533435089" lon="14.799555462979">
        <ele>166.8</ele>
        <time>2020-02-23T08:43:28Z</time>
      </trkpt>
      <trkpt lat="56.853709203532" lon="14.799722011332">
        <ele>166.4</ele>
        <time>2020-02-23T08:43:36Z</time>
      </trkpt>
      <trkpt lat="56.853877679722" lon="14.799901467811">
        <ele>166.6</ele>
        <time>2020-02-23T08:43:44Z</time>
      </trkpt>
      <trkpt lat="56.853994271951" lon="14.800153343906">
        <ele>166.8</ele>
        <time>2020-02-23T08:43:52Z</time>
      </trkpt>
      <trkpt lat="56.854156713173" lon="14.800299608061">
        <ele>166.6</ele>
        <time>2020-02-23T08:43:58Z</time>
      </trkpt>
      <trkpt lat="56.854320327861" lon="14.80047068264">
        <ele>166.8</ele>
        <time>2020-02-23T08:44:06Z</time>
      </trkpt>
      <trkpt lat="56.854472878441" lon="14.800663717797">
        <ele>166.8</ele>
        <time>2020-02-23T08:44:13Z</time>
      </trkpt>
      <trkpt lat="56.854638588604" lon="14.800797073826">
        <ele>167</ele>
        <time>2020-02-23T08:44:20Z</time>
      </trkpt>
      <trkpt lat="56.854774459203" lon="14.800917186453">
        <ele>166.8</ele>
        <time>2020-02-23T08:44:25Z</time>
      </trkpt>
      <trkpt lat="56.854864061714" lon="14.8010188589">
        <ele>167.4</ele>
        <time>2020-02-23T08:44:29Z</time>
      </trkpt>
      <trkpt lat="56.8549725235" lon="14.801153388395">
        <ele>168.6</ele>
        <time>2020-02-23T08:44:34Z</time>
      </trkpt>
      <trkpt lat="56.855143933355" lon="14.801260425258">
        <ele>168.6</ele>
        <time>2020-02-23T08:44:43Z</time>
      </trkpt>
      <trkpt lat="56.85533126882" lon="14.801314320875">
        <ele>168.6</ele>
        <time>2020-02-23T08:44:51Z</time>
      </trkpt>
      <trkpt lat="56.855524220158" lon="14.801410461268">
        <ele>168.8</ele>
        <time>2020-02-23T08:44:59Z</time>
      </trkpt>
      <trkpt lat="56.855719853704" lon="14.801443988868">
        <ele>169</ele>
        <time>2020-02-23T08:45:06Z</time>
      </trkpt>
      <trkpt lat="56.855904423142" lon="14.801513139543">
        <ele>169</ele>
        <time>2020-02-23T08:45:12Z</time>
      </trkpt>
      <trkpt lat="56.856008945435" lon="14.801610537221">
        <ele>169.8</ele>
        <time>2020-02-23T08:45:16Z</time>
      </trkpt>
      <trkpt lat="56.856141211817" lon="14.801851684484">
        <ele>170.4</ele>
        <time>2020-02-23T08:45:23Z</time>
      </trkpt>
      <trkpt lat="56.856227964482" lon="14.802139016016">
        <ele>169.2</ele>
        <time>2020-02-23T08:45:30Z</time>
      </trkpt>
      <trkpt lat="56.856278255882" lon="14.802413187965">
        <ele>168.8</ele>
        <time>2020-02-23T08:45:35Z</time>
      </trkpt>
      <trkpt lat="56.856253696915" lon="14.802772939113">
        <ele>168.6</ele>
        <time>2020-02-23T08:45:41Z</time>
      </trkpt>
      <trkpt lat="56.856172057209" lon="14.803101341955">
        <ele>168.6</ele>
        <time>2020-02-23T08:45:48Z</time>
      </trkpt>
      <trkpt lat="56.856071474409" lon="14.803423542191">
        <ele>168</ele>
        <time>2020-02-23T08:45:55Z</time>
      </trkpt>
      <trkpt lat="56.855960330415" lon="14.803720512908">
        <ele>168.8</ele>
        <time>2020-02-23T08:46:03Z</time>
      </trkpt>
      <trkpt lat="56.855846252756" lon="14.804013460313">
        <ele>168.4</ele>
        <time>2020-02-23T08:46:12Z</time>
      </trkpt>
      <trkpt lat="56.855786657447" lon="14.804229713333">
        <ele>167.6</ele>
        <time>2020-02-23T08:46:17Z</time>
      </trkpt>
      <trkpt lat="56.855727062138" lon="14.804560966021">
        <ele>167.6</ele>
        <time>2020-02-23T08:46:25Z</time>
      </trkpt>
      <trkpt lat="56.855672915064" lon="14.80489297308">
        <ele>168</ele>
        <time>2020-02-23T08:46:33Z</time>
      </trkpt>
      <trkpt lat="56.855736617504" lon="14.805249455287">
        <ele>167.2</ele>
        <time>2020-02-23T08:46:41Z</time>
      </trkpt>
      <trkpt lat="56.855887407885" lon="14.805466797954">
        <ele>166.8</ele>
        <time>2020-02-23T08:46:47Z</time>
      </trkpt>
      <trkpt lat="56.856053453324" lon="14.805670310486">
        <ele>167</ele>
        <time>2020-02-23T08:46:55Z</time>
      </trkpt>
      <trkpt lat="56.856215475451" lon="14.80582839312">
        <ele>166.8</ele>
        <time>2020-02-23T08:47:02Z</time>
      </trkpt>
      <trkpt lat="56.856380095967" lon="14.805998713328">
        <ele>166.6</ele>
        <time>2020-02-23T08:47:09Z</time>
      </trkpt>
      <trkpt lat="56.856539268248" lon="14.806162076559">
        <ele>167</ele>
        <time>2020-02-23T08:47:15Z</time>
      </trkpt>
      <trkpt lat="56.856703888764" lon="14.806322673763">
        <ele>166.8</ele>
        <time>2020-02-23T08:47:21Z</time>
      </trkpt>
      <trkpt lat="56.856837077155" lon="14.806562144646">
        <ele>167</ele>
        <time>2020-02-23T08:47:28Z</time>
      </trkpt>
      <trkpt lat="56.856989795373" lon="14.806750318301">
        <ele>167</ele>
        <time>2020-02-23T08:47:35Z</time>
      </trkpt>
      <trkpt lat="56.857154164432" lon="14.806961542181">
        <ele>166.2</ele>
        <time>2020-02-23T08:47:43Z</time>
      </trkpt>
      <trkpt lat="56.857325909563" lon="14.807089952889">
        <ele>166.8</ele>
        <time>2020-02-23T08:47:50Z</time>
      </trkpt>
      <trkpt lat="56.857512993571" lon="14.807174023346">
        <ele>165.8</ele>
        <time>2020-02-23T08:47:57Z</time>
      </trkpt>
      <trkpt lat="56.857717679569" lon="14.807265386056">
        <ele>166</ele>
        <time>2020-02-23T08:48:04Z</time>
      </trkpt>
      <trkpt lat="56.85785924986" lon="14.807308888117">
        <ele>166.4</ele>
        <time>2020-02-23T08:48:09Z</time>
      </trkpt>
      <trkpt lat="56.858082292219" lon="14.807344930287">
        <ele>166.4</ele>
        <time>2020-02-23T08:48:18Z</time>
      </trkpt>
      <trkpt lat="56.858279937421" lon="14.807286927539">
        <ele>165.6</ele>
        <time>2020-02-23T08:48:23Z</time>
      </trkpt>
      <trkpt lat="56.858316398686" lon="14.807273516499">
        <ele>165.6</ele>
        <time>2020-02-23T08:48:24Z</time>
      </trkpt>
      <trkpt lat="56.85848789236" lon="14.807155918442">
        <ele>165.6</ele>
        <time>2020-02-23T08:48:31Z</time>
      </trkpt>
      <trkpt lat="56.858668354667" lon="14.807103699205">
        <ele>166</ele>
        <time>2020-02-23T08:48:41Z</time>
      </trkpt>
      <trkpt lat="56.85870833633" lon="14.807119708634">
        <ele>166.2</ele>
        <time>2020-02-23T08:48:43Z</time>
      </trkpt>
      <trkpt lat="56.858810427872" lon="14.807145357248">
        <ele>166.4</ele>
        <time>2020-02-23T08:48:47Z</time>
      </trkpt>
      <trkpt lat="56.858958368407" lon="14.80708064898">
        <ele>166.6</ele>
        <time>2020-02-23T08:48:52Z</time>
      </trkpt>
      <trkpt lat="56.859085605649" lon="14.806931199703">
        <ele>165.4</ele>
        <time>2020-02-23T08:48:58Z</time>
      </trkpt>
      <trkpt lat="56.8592808201" lon="14.806888452013">
        <ele>165.4</ele>
        <time>2020-02-23T08:49:06Z</time>
      </trkpt>
      <trkpt lat="56.859465389538" lon="14.806813853103">
        <ele>165.6</ele>
        <time>2020-02-23T08:49:14Z</time>
      </trkpt>
      <trkpt lat="56.859644343103" lon="14.806676809038">
        <ele>165.4</ele>
        <time>2020-02-23T08:49:22Z</time>
      </trkpt>
      <trkpt lat="56.859786416308" lon="14.806446558245">
        <ele>165.8</ele>
        <time>2020-02-23T08:49:29Z</time>
      </trkpt>
      <trkpt lat="56.8598926988" lon="14.806173224486">
        <ele>165.8</ele>
        <time>2020-02-23T08:49:36Z</time>
      </trkpt>
      <trkpt lat="56.860012392332" lon="14.805899974546">
        <ele>166</ele>
        <time>2020-02-23T08:49:44Z</time>
      </trkpt>
      <trkpt lat="56.860138707565" lon="14.805654133419">
        <ele>166</ele>
        <time>2020-02-23T08:49:51Z</time>
      </trkpt>
      <trkpt lat="56.86016846331" lon="14.805534523706">
        <ele>166.6</ele>
        <time>2020-02-23T08:49:54Z</time>
      </trkpt>
      <trkpt lat="56.860189585698" lon="14.805191452539">
        <ele>167</ele>
        <time>2020-02-23T08:50:01Z</time>
      </trkpt>
      <trkpt lat="56.860164020903" lon="14.804836479074">
        <ele>167.2</ele>
        <time>2020-02-23T08:50:07Z</time>
      </trkpt>
      <trkpt lat="56.860195201571" lon="14.804480835057">
        <ele>167</ele>
        <time>2020-02-23T08:50:14Z</time>
      </trkpt>
      <trkpt lat="56.860292683068" lon="14.804174476612">
        <ele>166.8</ele>
        <time>2020-02-23T08:50:21Z</time>
      </trkpt>
      <trkpt lat="56.860326965039" lon="14.80403801928">
        <ele>166.8</ele>
        <time>2020-02-23T08:50:25Z</time>
      </trkpt>
      <trkpt lat="56.860437103205" lon="14.80373207993">
        <ele>167</ele>
        <time>2020-02-23T08:50:33Z</time>
      </trkpt>
      <trkpt lat="56.860589821423" lon="14.803504259888">
        <ele>167.2</ele>
        <time>2020-02-23T08:50:41Z</time>
      </trkpt>
      <trkpt lat="56.860723009814" lon="14.80323084231">
        <ele>167.2</ele>
        <time>2020-02-23T08:50:49Z</time>
      </trkpt>
      <trkpt lat="56.860788137177" lon="14.802933368679">
        <ele>167.4</ele>
        <time>2020-02-23T08:50:55Z</time>
      </trkpt>
      <trkpt lat="56.860769529359" lon="14.802740920255">
        <ele>167.8</ele>
        <time>2020-02-23T08:50:58Z</time>
      </trkpt>
      <trkpt lat="56.860812444687" lon="14.802423078607">
        <ele>167.6</ele>
        <time>2020-02-23T08:51:05Z</time>
      </trkpt>
      <trkpt lat="56.860809594841" lon="14.802388209903">
        <ele>167.2</ele>
        <time>2020-02-23T08:51:06Z</time>
      </trkpt>
      <trkpt lat="56.860918391903" lon="14.802113618859">
        <ele>167.2</ele>
        <time>2020-02-23T08:51:14Z</time>
      </trkpt>
      <trkpt lat="56.861043449851" lon="14.801831400286">
        <ele>168.2</ele>
        <time>2020-02-23T08:51:23Z</time>
      </trkpt>
      <trkpt lat="56.861115282734" lon="14.801496040467">
        <ele>167.2</ele>
        <time>2020-02-23T08:51:32Z</time>
      </trkpt>
      <trkpt lat="56.861158617157" lon="14.801310800477">
        <ele>166.6</ele>
        <time>2020-02-23T08:51:36Z</time>
      </trkpt>
      <trkpt lat="56.861224666529" lon="14.800999161435">
        <ele>167</ele>
        <time>2020-02-23T08:51:44Z</time>
      </trkpt>
      <trkpt lat="56.861291889367" lon="14.800659694485">
        <ele>167.2</ele>
        <time>2020-02-23T08:51:52Z</time>
      </trkpt>
      <trkpt lat="56.861384425543" lon="14.800360963569">
        <ele>167.2</ele>
        <time>2020-02-23T08:51:59Z</time>
      </trkpt>
      <trkpt lat="56.86148693618" lon="14.800053683115">
        <ele>167.4</ele>
        <time>2020-02-23T08:52:06Z</time>
      </trkpt>
      <trkpt lat="56.861533120449" lon="14.799864922727">
        <ele>167.8</ele>
        <time>2020-02-23T08:52:10Z</time>
      </trkpt>
      <trkpt lat="56.861615514526" lon="14.799534843505">
        <ele>168</ele>
        <time>2020-02-23T08:52:17Z</time>
      </trkpt>
      <trkpt lat="56.861677289129" lon="14.799194789822">
        <ele>168.2</ele>
        <time>2020-02-23T08:52:24Z</time>
      </trkpt>
      <trkpt lat="56.861770831133" lon="14.798904021711">
        <ele>167.6</ele>
        <time>2020-02-23T08:52:31Z</time>
      </trkpt>
      <trkpt lat="56.861876191616" lon="14.798639153671">
        <ele>167.6</ele>
        <time>2020-02-23T08:52:39Z</time>
      </trkpt>
      <trkpt lat="56.862010972568" lon="14.798410076344">
        <ele>168.6</ele>
        <time>2020-02-23T08:52:45Z</time>
      </trkpt>
      <trkpt lat="56.862088169867" lon="14.798142777553">
        <ele>168.6</ele>
        <time>2020-02-23T08:52:51Z</time>
      </trkpt>
      <trkpt lat="56.862084062736" lon="14.798107405935">
        <ele>169</ele>
        <time>2020-02-23T08:52:52Z</time>
      </trkpt>
      <trkpt lat="56.861987838524" lon="14.797805322259">
        <ele>168.6</ele>
        <time>2020-02-23T08:52:59Z</time>
      </trkpt>
      <trkpt lat="56.861846435871" lon="14.797590075067">
        <ele>168</ele>
        <time>2020-02-23T08:53:06Z</time>
      </trkpt>
      <trkpt lat="56.861695394033" lon="14.797381701033">
        <ele>168.2</ele>
        <time>2020-02-23T08:53:15Z</time>
      </trkpt>
      <trkpt lat="56.861531108793" lon="14.797178188501">
        <ele>168.6</ele>
        <time>2020-02-23T08:53:22Z</time>
      </trkpt>
      <trkpt lat="56.861369002847" lon="14.79698632681">
        <ele>168.4</ele>
        <time>2020-02-23T08:53:30Z</time>
      </trkpt>
      <trkpt lat="56.861231455868" lon="14.796754818732">
        <ele>169.4</ele>
        <time>2020-02-23T08:53:39Z</time>
      </trkpt>
      <trkpt lat="56.861196503345" lon="14.79672648791">
        <ele>170</ele>
        <time>2020-02-23T08:53:41Z</time>
      </trkpt>
      <trkpt lat="56.861115198915" lon="14.796559604281">
        <ele>171.2</ele>
        <time>2020-02-23T08:53:47Z</time>
      </trkpt>
      <trkpt lat="56.861009586975" lon="14.796383835838">
        <ele>171.4</ele>
        <time>2020-02-23T08:53:53Z</time>
      </trkpt>
      <trkpt lat="56.860895593135" lon="14.796062389973">
        <ele>171.8</ele>
        <time>2020-02-23T08:54:01Z</time>
      </trkpt>
      <trkpt lat="56.86085158816" lon="14.795961471897">
        <ele>172.4</ele>
        <time>2020-02-23T08:54:03Z</time>
      </trkpt>
      <trkpt lat="56.86082895703" lon="14.795881843847">
        <ele>172.6</ele>
        <time>2020-02-23T08:54:05Z</time>
      </trkpt>
      <trkpt lat="56.860816635637" lon="14.795739854461">
        <ele>173.2</ele>
        <time>2020-02-23T08:54:08Z</time>
      </trkpt>
      <trkpt lat="56.860817306189" lon="14.795682186989">
        <ele>173.4</ele>
        <time>2020-02-23T08:54:09Z</time>
      </trkpt>
      <trkpt lat="56.860820491311" lon="14.795525194002">
        <ele>174.6</ele>
        <time>2020-02-23T08:54:13Z</time>
      </trkpt>
      <trkpt lat="56.860903053026" lon="14.795198886635">
        <ele>174.8</ele>
        <time>2020-02-23T08:54:22Z</time>
      </trkpt>
      <trkpt lat="56.861014951391" lon="14.7949335995">
        <ele>173.6</ele>
        <time>2020-02-23T08:54:28Z</time>
      </trkpt>
      <trkpt lat="56.861072786501" lon="14.794745090569">
        <ele>174</ele>
        <time>2020-02-23T08:54:32Z</time>
      </trkpt>
      <trkpt lat="56.861178314622" lon="14.794530178653">
        <ele>173.4</ele>
        <time>2020-02-23T08:54:37Z</time>
      </trkpt>
      <trkpt lat="56.861326171338" lon="14.794282242051">
        <ele>174</ele>
        <time>2020-02-23T08:54:45Z</time>
      </trkpt>
      <trkpt lat="56.861438237341" lon="14.794034053992">
        <ele>173.4</ele>
        <time>2020-02-23T08:54:53Z</time>
      </trkpt>
      <trkpt lat="56.861591123197" lon="14.793834229496">
        <ele>173</ele>
        <time>2020-02-23T08:55:02Z</time>
      </trkpt>
      <trkpt lat="56.861609731015" lon="14.793767006658">
        <ele>173</ele>
        <time>2020-02-23T08:55:04Z</time>
      </trkpt>
      <trkpt lat="56.861774016255" lon="14.793579252098">
        <ele>173.4</ele>
        <time>2020-02-23T08:55:10Z</time>
      </trkpt>
      <trkpt lat="56.861869318458" lon="14.793469365389">
        <ele>173.4</ele>
        <time>2020-02-23T08:55:14Z</time>
      </trkpt>
      <trkpt lat="56.862013906233" lon="14.793232409076">
        <ele>174.2</ele>
        <time>2020-02-23T08:55:22Z</time>
      </trkpt>
      <trkpt lat="56.862059587588" lon="14.792904257691">
        <ele>173.6</ele>
        <time>2020-02-23T08:55:29Z</time>
      </trkpt>
      <trkpt lat="56.862160589483" lon="14.792610472096">
        <ele>173.6</ele>
        <time>2020-02-23T08:55:37Z</time>
      </trkpt>
      <trkpt lat="56.862277684626" lon="14.792315261578">
        <ele>172.8</ele>
        <time>2020-02-23T08:55:44Z</time>
      </trkpt>
      <trkpt lat="56.862388744801" lon="14.79202424201">
        <ele>173.4</ele>
        <time>2020-02-23T08:55:50Z</time>
      </trkpt>
      <trkpt lat="56.862509108885" lon="14.791711429502">
        <ele>174</ele>
        <time>2020-02-23T08:55:57Z</time>
      </trkpt>
      <trkpt lat="56.862613547359" lon="14.791378584253">
        <ele>173.6</ele>
        <time>2020-02-23T08:56:05Z</time>
      </trkpt>
      <trkpt lat="56.862761236437" lon="14.79117934649">
        <ele>173.4</ele>
        <time>2020-02-23T08:56:10Z</time>
      </trkpt>
      <trkpt lat="56.862917391234" lon="14.790965440402">
        <ele>173.2</ele>
        <time>2020-02-23T08:56:18Z</time>
      </trkpt>
      <trkpt lat="56.862989643212" lon="14.790819846799">
        <ele>174.4</ele>
        <time>2020-02-23T08:56:22Z</time>
      </trkpt>
      <trkpt lat="56.863171362804" lon="14.790732088306">
        <ele>174.2</ele>
        <time>2020-02-23T08:56:32Z</time>
      </trkpt>
      <trkpt lat="56.863203381662" lon="14.790724879872">
        <ele>174.2</ele>
        <time>2020-02-23T08:56:33Z</time>
      </trkpt>
      <trkpt lat="56.863224252593" lon="14.79072253294">
        <ele>174.6</ele>
        <time>2020-02-23T08:56:34Z</time>
      </trkpt>
      <trkpt lat="56.863267754654" lon="14.790719096361">
        <ele>174.4</ele>
        <time>2020-02-23T08:56:36Z</time>
      </trkpt>
      <trkpt lat="56.86347260829" lon="14.79073342941">
        <ele>173.8</ele>
        <time>2020-02-23T08:56:44Z</time>
      </trkpt>
      <trkpt lat="56.863491551384" lon="14.790736949808">
        <ele>173.6</ele>
        <time>2020-02-23T08:56:45Z</time>
      </trkpt>
      <trkpt lat="56.863514098695" lon="14.790743739147">
        <ele>173.4</ele>
        <time>2020-02-23T08:56:46Z</time>
      </trkpt>
      <trkpt lat="56.863720461073" lon="14.790774249263">
        <ele>173.6</ele>
        <time>2020-02-23T08:56:54Z</time>
      </trkpt>
      <trkpt lat="56.863913999144" lon="14.790758156015">
        <ele>174</ele>
        <time>2020-02-23T08:57:01Z</time>
      </trkpt>
      <trkpt lat="56.864101669885" lon="14.790736614532">
        <ele>173.2</ele>
        <time>2020-02-23T08:57:06Z</time>
      </trkpt>
      <trkpt lat="56.86430409277" lon="14.790748013916">
        <ele>173.6</ele>
        <time>2020-02-23T08:57:15Z</time>
      </trkpt>
      <trkpt lat="56.864356563464" lon="14.790739380559">
        <ele>173.8</ele>
        <time>2020-02-23T08:57:17Z</time>
      </trkpt>
      <trkpt lat="56.86440551376" lon="14.790754216522">
        <ele>173.8</ele>
        <time>2020-02-23T08:57:19Z</time>
      </trkpt>
      <trkpt lat="56.864546832594" lon="14.790937863951">
        <ele>174.2</ele>
        <time>2020-02-23T08:57:27Z</time>
      </trkpt>
      <trkpt lat="56.864634674906" lon="14.791064598279">
        <ele>174</ele>
        <time>2020-02-23T08:57:32Z</time>
      </trkpt>
      <trkpt lat="56.86476342089" lon="14.791319659496">
        <ele>174</ele>
        <time>2020-02-23T08:57:38Z</time>
      </trkpt>
      <trkpt lat="56.864889568485" lon="14.79158586864">
        <ele>173.6</ele>
        <time>2020-02-23T08:57:45Z</time>
      </trkpt>
      <trkpt lat="56.864979590091" lon="14.791874625095">
        <ele>172.8</ele>
        <time>2020-02-23T08:57:52Z</time>
      </trkpt>
      <trkpt lat="56.864990318923" lon="14.79190940998">
        <ele>172.8</ele>
        <time>2020-02-23T08:57:53Z</time>
      </trkpt>
      <trkpt lat="56.865035497364" lon="14.792008148762">
        <ele>172.2</ele>
        <time>2020-02-23T08:57:57Z</time>
      </trkpt>
      <trkpt lat="56.865190143419" lon="14.79223295132">
        <ele>171.4</ele>
        <time>2020-02-23T08:58:02Z</time>
      </trkpt>
      <trkpt lat="56.865311680969" lon="14.792380137484">
        <ele>171.4</ele>
        <time>2020-02-23T08:58:07Z</time>
      </trkpt>
      <trkpt lat="56.86548510248" lon="14.792520785766">
        <ele>172.6</ele>
        <time>2020-02-23T08:58:18Z</time>
      </trkpt>
      <trkpt lat="56.865552492956" lon="14.792560432153">
        <ele>173.2</ele>
        <time>2020-02-23T08:58:22Z</time>
      </trkpt>
      <trkpt lat="56.865608400229" lon="14.792582225093">
        <ele>174.4</ele>
        <time>2020-02-23T08:58:25Z</time>
      </trkpt>
      <trkpt lat="56.865801435386" lon="14.79270988143">
        <ele>175</ele>
        <time>2020-02-23T08:58:36Z</time>
      </trkpt>
      <trkpt lat="56.8659276668" lon="14.792797220828">
        <ele>175.4</ele>
        <time>2020-02-23T08:58:43Z</time>
      </trkpt>
      <trkpt lat="56.866139980327" lon="14.792899228551">
        <ele>176.2</ele>
        <time>2020-02-23T08:58:51Z</time>
      </trkpt>
      <trkpt lat="56.866342989945" lon="14.792981203533">
        <ele>176.4</ele>
        <time>2020-02-23T08:59:00Z</time>
      </trkpt>
      <trkpt lat="56.866417924131" lon="14.793020933739">
        <ele>176</ele>
        <time>2020-02-23T08:59:03Z</time>
      </trkpt>
      <trkpt lat="56.866499563837" lon="14.793088659491">
        <ele>175.8</ele>
        <time>2020-02-23T08:59:07Z</time>
      </trkpt>
      <trkpt lat="56.866553878549" lon="14.793136101045">
        <ele>176</ele>
        <time>2020-02-23T08:59:09Z</time>
      </trkpt>
      <trkpt lat="56.866676086651" lon="14.793278760983">
        <ele>176.4</ele>
        <time>2020-02-23T08:59:15Z</time>
      </trkpt>
      <trkpt lat="56.866823608091" lon="14.793502306256">
        <ele>176.6</ele>
        <time>2020-02-23T08:59:22Z</time>
      </trkpt>
      <trkpt lat="56.866962496174" lon="14.793682265649">
        <ele>175.4</ele>
        <time>2020-02-23T08:59:28Z</time>
      </trkpt>
      <trkpt lat="56.867113202736" lon="14.793882173964">
        <ele>174.8</ele>
        <time>2020-02-23T08:59:35Z</time>
      </trkpt>
      <trkpt lat="56.867217054477" lon="14.794049141412">
        <ele>174.4</ele>
        <time>2020-02-23T08:59:40Z</time>
      </trkpt>
      <trkpt lat="56.867343872624" lon="14.794286181544">
        <ele>173.8</ele>
        <time>2020-02-23T08:59:46Z</time>
      </trkpt>
      <trkpt lat="56.867495752652" lon="14.794473265552">
        <ele>174</ele>
        <time>2020-02-23T08:59:53Z</time>
      </trkpt>
      <trkpt lat="56.867641597712" lon="14.794700750318">
        <ele>173.6</ele>
        <time>2020-02-23T09:00:00Z</time>
      </trkpt>
      <trkpt lat="56.867690045094" lon="14.79476763788">
        <ele>173.4</ele>
        <time>2020-02-23T09:00:02Z</time>
      </trkpt>
      <trkpt lat="56.867844523511" lon="14.795014484835">
        <ele>173</ele>
        <time>2020-02-23T09:00:10Z</time>
      </trkpt>
      <trkpt lat="56.867975113513" lon="14.795290416983">
        <ele>172.4</ele>
        <time>2020-02-23T09:00:18Z</time>
      </trkpt>
      <trkpt lat="56.868079132892" lon="14.795582107103">
        <ele>172.4</ele>
        <time>2020-02-23T09:00:24Z</time>
      </trkpt>
      <trkpt lat="56.868126658265" lon="14.795615802341">
        <ele>172.2</ele>
        <time>2020-02-23T09:00:26Z</time>
      </trkpt>
      <trkpt lat="56.868229671816" lon="14.795379348942">
        <ele>172</ele>
        <time>2020-02-23T09:00:36Z</time>
      </trkpt>
      <trkpt lat="56.868296643197" lon="14.795068715728">
        <ele>172</ele>
        <time>2020-02-23T09:00:46Z</time>
      </trkpt>
      <trkpt lat="56.868368056985" lon="14.794735954298">
        <ele>172</ele>
        <time>2020-02-23T09:00:56Z</time>
      </trkpt>
      <trkpt lat="56.868453803822" lon="14.79441140713">
        <ele>171</ele>
        <time>2020-02-23T09:01:05Z</time>
      </trkpt>
      <trkpt lat="56.868457408039" lon="14.794382824851">
        <ele>171</ele>
        <time>2020-02-23T09:01:06Z</time>
      </trkpt>
      <trkpt lat="56.868520439927" lon="14.794056182208">
        <ele>171.2</ele>
        <time>2020-02-23T09:01:13Z</time>
      </trkpt>
      <trkpt lat="56.868621274184" lon="14.79372576771">
        <ele>171.8</ele>
        <time>2020-02-23T09:01:21Z</time>
      </trkpt>
      <trkpt lat="56.868626303324" lon="14.793681678916">
        <ele>172.2</ele>
        <time>2020-02-23T09:01:22Z</time>
      </trkpt>
      <trkpt lat="56.868711379609" lon="14.793370626607">
        <ele>172</ele>
        <time>2020-02-23T09:01:30Z</time>
      </trkpt>
      <trkpt lat="56.868798886645" lon="14.793076338098">
        <ele>171.8</ele>
        <time>2020-02-23T09:01:37Z</time>
      </trkpt>
      <trkpt lat="56.868865103655" lon="14.792794706258">
        <ele>171.6</ele>
        <time>2020-02-23T09:01:43Z</time>
      </trkpt>
      <trkpt lat="56.868901481101" lon="14.792658165107">
        <ele>171.2</ele>
        <time>2020-02-23T09:01:46Z</time>
      </trkpt>
      <trkpt lat="56.868991083612" lon="14.792318614338">
        <ele>170.4</ele>
        <time>2020-02-23T09:01:54Z</time>
      </trkpt>
      <trkpt lat="56.869078590648" lon="14.792001107966">
        <ele>170.2</ele>
        <time>2020-02-23T09:02:03Z</time>
      </trkpt>
      <trkpt lat="56.869089403299" lon="14.791971352221">
        <ele>170.2</ele>
        <time>2020-02-23T09:02:04Z</time>
      </trkpt>
      <trkpt lat="56.869117985578" lon="14.791903375012">
        <ele>170</ele>
        <time>2020-02-23T09:02:06Z</time>
      </trkpt>
      <trkpt lat="56.86919996056" lon="14.791584276079">
        <ele>171.2</ele>
        <time>2020-02-23T09:02:13Z</time>
      </trkpt>
      <trkpt lat="56.869249162313" lon="14.791447902566">
        <ele>171.2</ele>
        <time>2020-02-23T09:02:16Z</time>
      </trkpt>
      <trkpt lat="56.869292412917" lon="14.791119918819">
        <ele>171.6</ele>
        <time>2020-02-23T09:02:23Z</time>
      </trkpt>
      <trkpt lat="56.869312697115" lon="14.790769974494">
        <ele>171.8</ele>
        <time>2020-02-23T09:02:31Z</time>
      </trkpt>
      <trkpt lat="56.869364161981" lon="14.79043922472">
        <ele>170.6</ele>
        <time>2020-02-23T09:02:39Z</time>
      </trkpt>
      <trkpt lat="56.869471701758" lon="14.790130267886">
        <ele>172</ele>
        <time>2020-02-23T09:02:47Z</time>
      </trkpt>
      <trkpt lat="56.869568680341" lon="14.789859448697">
        <ele>169.8</ele>
        <time>2020-02-23T09:02:54Z</time>
      </trkpt>
      <trkpt lat="56.869645207088" lon="14.789558370849">
        <ele>169.8</ele>
        <time>2020-02-23T09:03:01Z</time>
      </trkpt>
      <trkpt lat="56.869767666647" lon="14.789301633252">
        <ele>169.8</ele>
        <time>2020-02-23T09:03:08Z</time>
      </trkpt>
      <trkpt lat="56.869804798464" lon="14.788992592599">
        <ele>170.2</ele>
        <time>2020-02-23T09:03:17Z</time>
      </trkpt>
      <trkpt lat="56.86988643817" lon="14.788994939531">
        <ele>169.4</ele>
        <time>2020-02-23T09:03:22Z</time>
      </trkpt>
      <trkpt lat="56.870054998179" lon="14.789119997479">
        <ele>170.2</ele>
        <time>2020-02-23T09:03:29Z</time>
      </trkpt>
      <trkpt lat="56.870240238169" lon="14.789221586107">
        <ele>170.2</ele>
        <time>2020-02-23T09:03:36Z</time>
      </trkpt>
      <trkpt lat="56.870424639969" lon="14.789327449504">
        <ele>171.2</ele>
        <time>2020-02-23T09:03:43Z</time>
      </trkpt>
      <trkpt lat="56.870549697917" lon="14.789422751707">
        <ele>172.4</ele>
        <time>2020-02-23T09:03:48Z</time>
      </trkpt>
      <trkpt lat="56.870666206327" lon="14.789568848224">
        <ele>173.6</ele>
        <time>2020-02-23T09:03:54Z</time>
      </trkpt>
      <trkpt lat="56.870830743024" lon="14.789744029934">
        <ele>174.6</ele>
        <time>2020-02-23T09:04:02Z</time>
      </trkpt>
      <trkpt lat="56.870956052429" lon="14.789882918017">
        <ele>175.8</ele>
        <time>2020-02-23T09:04:08Z</time>
      </trkpt>
      <trkpt lat="56.871085133689" lon="14.790021470824">
        <ele>176.8</ele>
        <time>2020-02-23T09:04:15Z</time>
      </trkpt>
      <trkpt lat="56.87120491104" lon="14.790135967578">
        <ele>176.8</ele>
        <time>2020-02-23T09:04:22Z</time>
      </trkpt>
      <trkpt lat="56.871267523833" lon="14.79005952465">
        <ele>175.6</ele>
        <time>2020-02-23T09:04:25Z</time>
      </trkpt>
      <trkpt lat="56.871372968135" lon="14.789794572791">
        <ele>174.2</ele>
        <time>2020-02-23T09:04:32Z</time>
      </trkpt>
      <trkpt lat="56.871397275645" lon="14.789718046044">
        <ele>173</ele>
        <time>2020-02-23T09:04:34Z</time>
      </trkpt>
      <trkpt lat="56.871480927007" lon="14.789408921572">
        <ele>172.6</ele>
        <time>2020-02-23T09:04:42Z</time>
      </trkpt>
      <trkpt lat="56.87150917401" lon="14.789206163411">
        <ele>171.8</ele>
        <time>2020-02-23T09:04:47Z</time>
      </trkpt>
      <trkpt lat="56.871608583344" lon="14.789093510675">
        <ele>171.2</ele>
        <time>2020-02-23T09:04:57Z</time>
      </trkpt>
      <trkpt lat="56.871631130655" lon="14.789098204539">
        <ele>170.6</ele>
        <time>2020-02-23T09:04:59Z</time>
      </trkpt>
      <trkpt lat="56.871648984102" lon="14.789102060213">
        <ele>170</ele>
        <time>2020-02-23T09:05:01Z</time>
      </trkpt>
      <trkpt lat="56.87171620694" lon="14.789105580611">
        <ele>169.6</ele>
        <time>2020-02-23T09:05:05Z</time>
      </trkpt>
      <trkpt lat="56.871904632052" lon="14.789052523184">
        <ele>169.4</ele>
        <time>2020-02-23T09:05:13Z</time>
      </trkpt>
      <trkpt lat="56.872084926721" lon="14.788964680872">
        <ele>169.8</ele>
        <time>2020-02-23T09:05:19Z</time>
      </trkpt>
      <trkpt lat="56.872285673226" lon="14.789048332234">
        <ele>170.8</ele>
        <time>2020-02-23T09:05:24Z</time>
      </trkpt>
      <trkpt lat="56.872431937381" lon="14.789304986012">
        <ele>170.8</ele>
        <time>2020-02-23T09:05:31Z</time>
      </trkpt>
      <trkpt lat="56.872539225701" lon="14.789611176819">
        <ele>170.8</ele>
        <time>2020-02-23T09:05:37Z</time>
      </trkpt>
      <trkpt lat="56.872526569032" lon="14.789955505271">
        <ele>171.6</ele>
        <time>2020-02-23T09:05:44Z</time>
      </trkpt>
      <trkpt lat="56.87251164925" lon="14.789997917685">
        <ele>171.8</ele>
        <time>2020-02-23T09:05:45Z</time>
      </trkpt>
      <trkpt lat="56.872442163299" lon="14.790133369189">
        <ele>172.8</ele>
        <time>2020-02-23T09:05:49Z</time>
      </trkpt>
      <trkpt lat="56.872274609118" lon="14.790318357722">
        <ele>174</ele>
        <time>2020-02-23T09:05:58Z</time>
      </trkpt>
      <trkpt lat="56.872124656927" lon="14.790507034291">
        <ele>174</ele>
        <time>2020-02-23T09:06:09Z</time>
      </trkpt>
      <trkpt lat="56.872082328332" lon="14.790563695935">
        <ele>175.2</ele>
        <time>2020-02-23T09:06:12Z</time>
      </trkpt>
      <trkpt lat="56.872058272279" lon="14.790607114177">
        <ele>176.4</ele>
        <time>2020-02-23T09:06:14Z</time>
      </trkpt>
      <trkpt lat="56.872036060244" lon="14.790648185487">
        <ele>178</ele>
        <time>2020-02-23T09:06:16Z</time>
      </trkpt>
      <trkpt lat="56.871963975904" lon="14.790754467979">
        <ele>178.4</ele>
        <time>2020-02-23T09:06:21Z</time>
      </trkpt>
      <trkpt lat="56.871930699761" lon="14.790926883662">
        <ele>178</ele>
        <time>2020-02-23T09:06:25Z</time>
      </trkpt>
      <trkpt lat="56.872037317529" lon="14.791251347011">
        <ele>176.8</ele>
        <time>2020-02-23T09:06:33Z</time>
      </trkpt>
      <trkpt lat="56.872142175098" lon="14.791434575345">
        <ele>175.8</ele>
        <time>2020-02-23T09:06:38Z</time>
      </trkpt>
      <trkpt lat="56.872274776756" lon="14.791672369848">
        <ele>175</ele>
        <time>2020-02-23T09:06:45Z</time>
      </trkpt>
      <trkpt lat="56.872410814993" lon="14.791824668971">
        <ele>176.8</ele>
        <time>2020-02-23T09:06:52Z</time>
      </trkpt>
      <trkpt lat="56.872576692794" lon="14.791958611733">
        <ele>176.4</ele>
        <time>2020-02-23T09:06:59Z</time>
      </trkpt>
      <trkpt lat="56.872616423" lon="14.792003119622">
        <ele>175.8</ele>
        <time>2020-02-23T09:07:01Z</time>
      </trkpt>
      <trkpt lat="56.872789760692" lon="14.792193472571">
        <ele>177</ele>
        <time>2020-02-23T09:07:09Z</time>
      </trkpt>
      <trkpt lat="56.872952956285" lon="14.792425399744">
        <ele>176.8</ele>
        <time>2020-02-23T09:07:16Z</time>
      </trkpt>
      <trkpt lat="56.873024286254" lon="14.792514247884">
        <ele>178.2</ele>
        <time>2020-02-23T09:07:19Z</time>
      </trkpt>
      <trkpt lat="56.873102908476" lon="14.792595971409">
        <ele>179.4</ele>
        <time>2020-02-23T09:07:23Z</time>
      </trkpt>
      <trkpt lat="56.873260572015" lon="14.792668893939">
        <ele>178</ele>
        <time>2020-02-23T09:07:31Z</time>
      </trkpt>
      <trkpt lat="56.873309438492" lon="14.792690686879">
        <ele>177.4</ele>
        <time>2020-02-23T09:07:34Z</time>
      </trkpt>
      <trkpt lat="56.873332572536" lon="14.792654477071">
        <ele>177</ele>
        <time>2020-02-23T09:07:36Z</time>
      </trkpt>
      <trkpt lat="56.873360148987" lon="14.792433697825">
        <ele>177</ele>
        <time>2020-02-23T09:07:42Z</time>
      </trkpt>
    </trkseg>
  </trk>
</gpx>